CLX6572 SBKP-DGAA
Flight info
| Callsign | CLX6572 |
|---|---|
| Flight time | 6h 47m |
| Altitude | 33000 |
| Route | UGIK1B UREMI UZ42 IMDAB DCT SEGLI DCT TODET DCT AKSEP UZ49 OBLAT/M085F330 UZ49 VURIL DCT 16S030W 13S025W 10S020W/M085F350 06S015W 02S010W DCT KIRVU/N0503F350 DCT VOSGA DCT APUMI DCT ARMAR UN121 ACC |
| Aircraft | B744/H-SDE2E3FGHIJ4J5M1RWXYZ/LB2D1 |
Departure
| Time | 2026-05-07 15:55 |
|---|---|
| Airport | Viracopos International Airport (SBKP) |
Arrival
| Time | 2026-05-07 22:42 |
|---|---|
| Airport | Kotoka International Airport (DGAA) |
| Time | Latitude | Longitude | Altitude | Speed | Heading |
|---|---|---|---|---|---|
| 2026-05-07 14:39 | -23.00470 | -47.14485 | 2183 ft | 0 kts | 218° |
| 2026-05-07 15:39 | -23.00462 | -47.14478 | 2183 ft | 2 kts | 218° |
| 2026-05-07 15:39 | -23.00450 | -47.14467 | 2183 ft | 2 kts | 218° |
| 2026-05-07 15:39 | -23.00437 | -47.14457 | 2183 ft | 2 kts | 218° |
| 2026-05-07 15:40 | -23.00424 | -47.14446 | 2183 ft | 2 kts | 213° |
| 2026-05-07 15:40 | -23.00409 | -47.14439 | 2183 ft | 2 kts | 187° |
| 2026-05-07 15:40 | -23.00393 | -47.14440 | 2183 ft | 2 kts | 161° |
| 2026-05-07 15:40 | -23.00381 | -47.14448 | 2183 ft | 1 kts | 139° |
| 2026-05-07 15:41 | -23.00379 | -47.14449 | 2183 ft | 0 kts | 138° |
| 2026-05-07 15:46 | -23.00389 | -47.14438 | 2183 ft | 5 kts | 128° |
| 2026-05-07 15:47 | -23.00415 | -47.14389 | 2183 ft | 10 kts | 123° |
| 2026-05-07 15:47 | -23.00467 | -47.14315 | 2183 ft | 13 kts | 128° |
| 2026-05-07 15:47 | -23.00522 | -47.14238 | 2183 ft | 13 kts | 128° |
| 2026-05-07 15:47 | -23.00575 | -47.14165 | 2183 ft | 12 kts | 128° |
| 2026-05-07 15:48 | -23.00626 | -47.14094 | 2183 ft | 12 kts | 128° |
| 2026-05-07 15:48 | -23.00672 | -47.14023 | 2183 ft | 11 kts | 119° |
| 2026-05-07 15:48 | -23.00704 | -47.13947 | 2183 ft | 11 kts | 109° |
| 2026-05-07 15:48 | -23.00719 | -47.13869 | 2183 ft | 10 kts | 97° |
| 2026-05-07 15:49 | -23.00732 | -47.13795 | 2183 ft | 10 kts | 111° |
| 2026-05-07 15:49 | -23.00770 | -47.13732 | 2183 ft | 11 kts | 128° |
| 2026-05-07 15:49 | -23.00832 | -47.13645 | 2183 ft | 18 kts | 128° |
| 2026-05-07 15:49 | -23.00922 | -47.13520 | 2183 ft | 24 kts | 128° |
| 2026-05-07 15:50 | -23.01019 | -47.13383 | 2183 ft | 22 kts | 128° |
| 2026-05-07 15:50 | -23.01112 | -47.13253 | 2183 ft | 21 kts | 128° |
| 2026-05-07 15:50 | -23.01202 | -47.13128 | 2183 ft | 20 kts | 128° |
| 2026-05-07 15:50 | -23.01287 | -47.13009 | 2183 ft | 19 kts | 128° |
| 2026-05-07 15:51 | -23.01368 | -47.12896 | 2183 ft | 19 kts | 128° |
| 2026-05-07 15:51 | -23.01445 | -47.12788 | 2183 ft | 18 kts | 128° |
| 2026-05-07 15:51 | -23.01519 | -47.12685 | 2183 ft | 17 kts | 128° |
| 2026-05-07 15:51 | -23.01588 | -47.12588 | 2183 ft | 16 kts | 128° |
| 2026-05-07 15:52 | -23.01653 | -47.12497 | 2183 ft | 15 kts | 128° |
| 2026-05-07 15:52 | -23.01695 | -47.12439 | 2183 ft | 14 kts | 128° |
| 2026-05-07 15:52 | -23.01741 | -47.12374 | 2183 ft | 9 kts | 127° |
| 2026-05-07 15:52 | -23.01752 | -47.12315 | 2183 ft | 8 kts | 66° |
| 2026-05-07 15:53 | -23.01713 | -47.12274 | 2183 ft | 8 kts | 37° |
| 2026-05-07 15:53 | -23.01671 | -47.12240 | 2183 ft | 7 kts | 37° |
| 2026-05-07 15:53 | -23.01642 | -47.12217 | 2183 ft | 4 kts | 26° |
| 2026-05-07 15:53 | -23.01619 | -47.12229 | 2183 ft | 4 kts | 307° |
| 2026-05-07 15:54 | -23.01550 | -47.12323 | 2183 ft | 35 kts | 308° |
| 2026-05-07 15:54 | -23.01259 | -47.12730 | 2183 ft | 102 kts | 308° |
| 2026-05-07 15:54 | -23.00685 | -47.13534 | 2184 ft | 167 kts | 308° |
| 2026-05-07 15:54 | -22.99886 | -47.14653 | 2440 ft | 197 kts | 309° |
| 2026-05-07 15:55 | -22.99096 | -47.15869 | 3231 ft | 201 kts | 298° |
| 2026-05-07 15:55 | -22.98836 | -47.17394 | 3853 ft | 217 kts | 270° |
| 2026-05-07 15:55 | -22.99203 | -47.19024 | 4100 ft | 232 kts | 253° |
| 2026-05-07 15:55 | -22.99956 | -47.20643 | 4225 ft | 250 kts | 240° |
| 2026-05-07 15:56 | -23.01032 | -47.22191 | 4440 ft | 263 kts | 234° |
| 2026-05-07 15:56 | -23.02267 | -47.23686 | 4804 ft | 271 kts | 227° |
| 2026-05-07 15:56 | -23.03700 | -47.25077 | 5118 ft | 284 kts | 223° |
| 2026-05-07 15:56 | -23.05228 | -47.26505 | 5409 ft | 297 kts | 223° |
| 2026-05-07 15:57 | -23.06858 | -47.28019 | 5790 ft | 309 kts | 222° |
| 2026-05-07 15:57 | -23.08502 | -47.29525 | 6278 ft | 319 kts | 221° |
| 2026-05-07 15:57 | -23.10324 | -47.31022 | 6764 ft | 330 kts | 211° |
| 2026-05-07 15:57 | -23.12486 | -47.31867 | 7399 ft | 333 kts | 190° |
| 2026-05-07 15:58 | -23.14796 | -47.31850 | 8030 ft | 336 kts | 169° |
| 2026-05-07 15:58 | -23.16957 | -47.30902 | 8537 ft | 339 kts | 146° |
| 2026-05-07 15:58 | -23.18680 | -47.29163 | 9042 ft | 341 kts | 126° |
| 2026-05-07 15:58 | -23.19911 | -47.26961 | 9597 ft | 342 kts | 114° |
| 2026-05-07 15:59 | -23.20697 | -47.24542 | 10226 ft | 341 kts | 99° |
| 2026-05-07 15:59 | -23.20921 | -47.21957 | 10593 ft | 350 kts | 89° |
| 2026-05-07 15:59 | -23.20839 | -47.19243 | 10727 ft | 370 kts | 84° |
| 2026-05-07 15:59 | -23.20653 | -47.16375 | 10821 ft | 391 kts | 84° |
| 2026-05-07 16:00 | -23.20486 | -47.13369 | 11096 ft | 404 kts | 84° |
| 2026-05-07 16:00 | -23.20369 | -47.10291 | 11581 ft | 412 kts | 86° |
| 2026-05-07 16:00 | -23.20346 | -47.07159 | 12116 ft | 418 kts | 88° |
| 2026-05-07 16:00 | -23.20505 | -47.03942 | 12577 ft | 427 kts | 98° |
| 2026-05-07 16:01 | -23.21483 | -47.00882 | 13163 ft | 433 kts | 116° |
| 2026-05-07 16:01 | -23.23270 | -46.98230 | 13756 ft | 440 kts | 132° |
| 2026-05-07 16:01 | -23.25632 | -46.96115 | 14338 ft | 445 kts | 145° |
| 2026-05-07 16:01 | -23.28357 | -46.94503 | 14933 ft | 448 kts | 151° |
| 2026-05-07 16:02 | -23.31015 | -46.92750 | 15437 ft | 449 kts | 140° |
| 2026-05-07 16:02 | -23.33194 | -46.90321 | 15955 ft | 451 kts | 129° |
| 2026-05-07 16:02 | -23.35110 | -46.87630 | 16490 ft | 452 kts | 124° |
| 2026-05-07 16:02 | -23.36856 | -46.84774 | 17029 ft | 455 kts | 121° |
| 2026-05-07 16:03 | -23.38478 | -46.81815 | 17552 ft | 457 kts | 119° |
| 2026-05-07 16:03 | -23.40049 | -46.78805 | 18032 ft | 460 kts | 118° |
| 2026-05-07 16:03 | -23.41649 | -46.75772 | 18481 ft | 464 kts | 119° |
| 2026-05-07 16:03 | -23.43303 | -46.72686 | 18910 ft | 469 kts | 120° |
| 2026-05-07 16:04 | -23.44969 | -46.69630 | 19332 ft | 472 kts | 120° |
| 2026-05-07 16:04 | -23.46648 | -46.66536 | 19752 ft | 476 kts | 120° |
| 2026-05-07 16:04 | -23.48330 | -46.63423 | 20171 ft | 479 kts | 120° |
| 2026-05-07 16:04 | -23.50025 | -46.60281 | 20534 ft | 484 kts | 120° |
| 2026-05-07 16:05 | -23.51730 | -46.57116 | 20903 ft | 488 kts | 120° |
| 2026-05-07 16:05 | -23.53454 | -46.53916 | 21287 ft | 491 kts | 120° |
| 2026-05-07 16:05 | -23.55184 | -46.50702 | 21637 ft | 495 kts | 121° |
| 2026-05-07 16:05 | -23.56874 | -46.47435 | 21990 ft | 498 kts | 115° |
| 2026-05-07 16:06 | -23.57923 | -46.43836 | 22301 ft | 503 kts | 100° |
| 2026-05-07 16:06 | -23.58149 | -46.40034 | 22631 ft | 506 kts | 89° |
| 2026-05-07 16:06 | -23.57869 | -46.36195 | 22977 ft | 510 kts | 82° |
| 2026-05-07 16:06 | -23.57236 | -46.32395 | 23322 ft | 513 kts | 77° |
| 2026-05-07 16:07 | -23.56380 | -46.28559 | 23533 ft | 518 kts | 75° |
| 2026-05-07 16:07 | -23.55443 | -46.24755 | 23884 ft | 520 kts | 75° |
| 2026-05-07 16:07 | -23.54530 | -46.20951 | 24253 ft | 522 kts | 75° |
| 2026-05-07 16:07 | -23.53641 | -46.17111 | 24509 ft | 526 kts | 76° |
| 2026-05-07 16:08 | -23.52764 | -46.13240 | 24830 ft | 528 kts | 76° |
| 2026-05-07 16:08 | -23.51891 | -46.09352 | 25118 ft | 531 kts | 76° |
| 2026-05-07 16:08 | -23.51020 | -46.05443 | 25371 ft | 534 kts | 77° |
| 2026-05-07 16:08 | -23.50159 | -46.01507 | 25690 ft | 535 kts | 77° |
| 2026-05-07 16:09 | -23.49288 | -45.97561 | 26007 ft | 537 kts | 77° |
| 2026-05-07 16:09 | -23.48413 | -45.93621 | 26417 ft | 536 kts | 77° |
| 2026-05-07 16:09 | -23.47535 | -45.89681 | 26794 ft | 536 kts | 77° |
| 2026-05-07 16:09 | -23.46657 | -45.85745 | 27181 ft | 536 kts | 77° |
| 2026-05-07 16:10 | -23.45781 | -45.81760 | 27588 ft | 535 kts | 78° |
| 2026-05-07 16:10 | -23.44905 | -45.77828 | 27950 ft | 535 kts | 78° |
| 2026-05-07 16:10 | -23.44023 | -45.73898 | 28328 ft | 535 kts | 78° |
| 2026-05-07 16:10 | -23.43138 | -45.69974 | 28690 ft | 535 kts | 78° |
| 2026-05-07 16:11 | -23.42253 | -45.66055 | 29073 ft | 534 kts | 78° |
| 2026-05-07 16:11 | -23.41367 | -45.62139 | 29473 ft | 533 kts | 78° |
| 2026-05-07 16:11 | -23.40482 | -45.58228 | 29847 ft | 533 kts | 78° |
| 2026-05-07 16:11 | -23.39598 | -45.54319 | 30239 ft | 533 kts | 78° |
| 2026-05-07 16:12 | -23.38716 | -45.50412 | 30572 ft | 533 kts | 79° |
| 2026-05-07 16:12 | -23.37884 | -45.46483 | 30910 ft | 532 kts | 79° |
| 2026-05-07 16:12 | -23.37057 | -45.42566 | 31270 ft | 532 kts | 79° |
| 2026-05-07 16:12 | -23.36220 | -45.38646 | 31619 ft | 531 kts | 79° |
| 2026-05-07 16:13 | -23.35372 | -45.34687 | 31956 ft | 531 kts | 79° |
| 2026-05-07 16:13 | -23.34538 | -45.30792 | 32275 ft | 530 kts | 79° |
| 2026-05-07 16:13 | -23.33698 | -45.26889 | 32539 ft | 530 kts | 79° |
| 2026-05-07 16:13 | -23.32857 | -45.22989 | 32731 ft | 529 kts | 79° |
| 2026-05-07 16:14 | -23.32018 | -45.19101 | 32850 ft | 530 kts | 79° |
| 2026-05-07 16:14 | -23.30332 | -45.11310 | 33042 ft | 530 kts | 79° |
| 2026-05-07 16:15 | -23.28646 | -45.03532 | 33063 ft | 529 kts | 79° |
| 2026-05-07 16:15 | -23.26963 | -44.95754 | 33045 ft | 529 kts | 80° |
| 2026-05-07 16:16 | -23.25315 | -44.87976 | 33027 ft | 529 kts | 79° |
| 2026-05-07 16:16 | -23.23622 | -44.80201 | 33025 ft | 529 kts | 79° |
| 2026-05-07 16:17 | -23.21911 | -44.72389 | 33023 ft | 529 kts | 79° |
| 2026-05-07 16:17 | -23.20202 | -44.64631 | 33041 ft | 530 kts | 78° |
| 2026-05-07 16:18 | -23.17737 | -44.57081 | 33040 ft | 532 kts | 70° |
| 2026-05-07 16:18 | -23.14744 | -44.49725 | 33034 ft | 533 kts | 68° |
| 2026-05-07 16:19 | -23.11738 | -44.42369 | 33029 ft | 533 kts | 69° |
| 2026-05-07 16:19 | -23.08764 | -44.34997 | 33024 ft | 534 kts | 69° |
| 2026-05-07 16:20 | -23.05779 | -44.27571 | 33018 ft | 534 kts | 69° |
| 2026-05-07 16:20 | -23.02848 | -44.20186 | 33012 ft | 534 kts | 69° |
| 2026-05-07 16:21 | -22.99899 | -44.12810 | 33007 ft | 533 kts | 69° |
| 2026-05-07 16:21 | -22.96942 | -44.05439 | 33003 ft | 533 kts | 69° |
| 2026-05-07 16:22 | -22.93964 | -43.98036 | 32998 ft | 532 kts | 69° |
| 2026-05-07 16:22 | -22.91024 | -43.90738 | 32995 ft | 532 kts | 69° |
| 2026-05-07 16:23 | -22.88042 | -43.83349 | 32996 ft | 532 kts | 69° |
| 2026-05-07 16:23 | -22.85078 | -43.76016 | 32994 ft | 532 kts | 69° |
| 2026-05-07 16:24 | -22.82110 | -43.68685 | 32994 ft | 532 kts | 69° |
| 2026-05-07 16:24 | -22.79140 | -43.61358 | 32995 ft | 532 kts | 69° |
| 2026-05-07 16:25 | -22.76166 | -43.54035 | 32997 ft | 531 kts | 69° |
| 2026-05-07 16:25 | -22.73169 | -43.46667 | 32996 ft | 531 kts | 69° |
| 2026-05-07 16:26 | -22.70187 | -43.39348 | 32997 ft | 532 kts | 69° |
| 2026-05-07 16:26 | -22.67204 | -43.32034 | 32996 ft | 532 kts | 69° |
| 2026-05-07 16:27 | -22.64216 | -43.24723 | 32996 ft | 532 kts | 69° |
| 2026-05-07 16:27 | -22.61226 | -43.17419 | 32997 ft | 531 kts | 69° |
| 2026-05-07 16:28 | -22.58235 | -43.10120 | 33003 ft | 531 kts | 70° |
| 2026-05-07 16:28 | -22.55219 | -43.02774 | 33009 ft | 531 kts | 70° |
| 2026-05-07 16:29 | -22.52231 | -42.95507 | 33013 ft | 531 kts | 70° |
| 2026-05-07 16:29 | -22.49232 | -42.88224 | 33018 ft | 531 kts | 70° |
| 2026-05-07 16:30 | -22.46234 | -42.80952 | 33022 ft | 530 kts | 70° |
| 2026-05-07 16:30 | -22.43232 | -42.73683 | 33025 ft | 530 kts | 70° |
| 2026-05-07 16:31 | -22.40226 | -42.66369 | 33028 ft | 529 kts | 70° |
| 2026-05-07 16:31 | -22.37221 | -42.59122 | 33030 ft | 529 kts | 70° |
| 2026-05-07 16:32 | -22.34214 | -42.51892 | 33033 ft | 529 kts | 70° |
| 2026-05-07 16:32 | -22.31205 | -42.44665 | 33037 ft | 528 kts | 70° |
| 2026-05-07 16:33 | -22.27600 | -42.37763 | 33040 ft | 532 kts | 59° |
| 2026-05-07 16:33 | -22.23165 | -42.31348 | 33039 ft | 535 kts | 55° |
| 2026-05-07 16:34 | -22.18564 | -42.24987 | 33037 ft | 535 kts | 56° |
| 2026-05-07 16:34 | -22.14039 | -42.18630 | 33037 ft | 535 kts | 56° |
| 2026-05-07 16:35 | -22.09530 | -42.12268 | 33036 ft | 534 kts | 56° |
| 2026-05-07 16:35 | -22.05046 | -42.05894 | 33036 ft | 534 kts | 56° |
| 2026-05-07 16:36 | -22.00557 | -41.99533 | 33036 ft | 534 kts | 56° |
| 2026-05-07 16:36 | -21.96056 | -41.93173 | 33038 ft | 534 kts | 56° |
| 2026-05-07 16:37 | -21.91523 | -41.86778 | 33040 ft | 534 kts | 56° |
| 2026-05-07 16:37 | -21.87019 | -41.80433 | 33042 ft | 534 kts | 56° |
| 2026-05-07 16:38 | -21.82513 | -41.74092 | 33050 ft | 534 kts | 56° |
| 2026-05-07 16:38 | -21.78007 | -41.67757 | 33055 ft | 534 kts | 56° |
| 2026-05-07 16:39 | -21.73499 | -41.61428 | 33052 ft | 533 kts | 56° |
| 2026-05-07 16:39 | -21.68992 | -41.55104 | 33052 ft | 533 kts | 56° |
| 2026-05-07 16:40 | -21.64467 | -41.48742 | 33052 ft | 533 kts | 56° |
| 2026-05-07 16:40 | -21.59962 | -41.42446 | 33053 ft | 533 kts | 56° |
| 2026-05-07 16:41 | -21.55451 | -41.36150 | 33052 ft | 532 kts | 56° |
| 2026-05-07 16:41 | -21.50943 | -41.29866 | 33054 ft | 532 kts | 56° |
| 2026-05-07 16:42 | -21.46504 | -41.23547 | 33059 ft | 531 kts | 57° |
| 2026-05-07 16:42 | -21.42133 | -41.17174 | 33060 ft | 530 kts | 57° |
| 2026-05-07 16:43 | -21.38469 | -41.11856 | 33061 ft | 529 kts | 57° |
| 2026-05-07 16:43 | -21.34095 | -41.05520 | 33061 ft | 530 kts | 57° |
| 2026-05-07 16:44 | -21.29001 | -40.98095 | 33058 ft | 529 kts | 57° |
| 2026-05-07 16:44 | -21.25337 | -40.92793 | 33059 ft | 529 kts | 57° |
| 2026-05-07 16:45 | -21.20955 | -40.86469 | 33059 ft | 529 kts | 57° |
| 2026-05-07 16:45 | -21.16578 | -40.80159 | 33060 ft | 528 kts | 57° |
| 2026-05-07 16:46 | -21.12469 | -40.73673 | 33060 ft | 525 kts | 64° |
| 2026-05-07 16:46 | -21.09063 | -40.66799 | 33060 ft | 522 kts | 67° |
| 2026-05-07 16:47 | -21.05728 | -40.59863 | 33060 ft | 521 kts | 66° |
| 2026-05-07 16:47 | -21.02341 | -40.53008 | 33061 ft | 522 kts | 66° |
| 2026-05-07 16:48 | -20.98940 | -40.46161 | 33060 ft | 521 kts | 66° |
| 2026-05-07 16:48 | -20.95542 | -40.39326 | 33060 ft | 521 kts | 66° |
| 2026-05-07 16:49 | -20.92152 | -40.32496 | 33062 ft | 521 kts | 66° |
| 2026-05-07 16:49 | -20.88770 | -40.25682 | 33059 ft | 519 kts | 66° |
| 2026-05-07 16:50 | -20.85359 | -40.18824 | 33058 ft | 519 kts | 66° |
| 2026-05-07 16:50 | -20.81963 | -40.12022 | 33058 ft | 519 kts | 66° |
| 2026-05-07 16:51 | -20.78566 | -40.05242 | 33057 ft | 518 kts | 66° |
| 2026-05-07 16:51 | -20.75166 | -39.98461 | 33058 ft | 518 kts | 66° |
| 2026-05-07 16:52 | -20.71770 | -39.91698 | 33059 ft | 517 kts | 65° |
| 2026-05-07 16:52 | -20.68381 | -39.84949 | 33057 ft | 516 kts | 65° |
| 2026-05-07 16:53 | -20.64995 | -39.78154 | 33058 ft | 516 kts | 65° |
| 2026-05-07 16:53 | -20.61616 | -39.71412 | 33058 ft | 516 kts | 65° |
| 2026-05-07 16:54 | -20.58230 | -39.64676 | 33058 ft | 516 kts | 65° |
| 2026-05-07 16:54 | -20.54836 | -39.57936 | 33058 ft | 516 kts | 65° |
| 2026-05-07 16:55 | -20.51443 | -39.51206 | 33060 ft | 516 kts | 65° |
| 2026-05-07 16:55 | -20.48044 | -39.44474 | 33059 ft | 516 kts | 65° |
| 2026-05-07 16:56 | -20.44619 | -39.37697 | 33060 ft | 516 kts | 65° |
| 2026-05-07 16:56 | -20.39513 | -39.27610 | 33060 ft | 516 kts | 65° |
| 2026-05-07 16:57 | -20.36105 | -39.20890 | 33061 ft | 516 kts | 64° |
| 2026-05-07 16:57 | -20.32696 | -39.14173 | 33061 ft | 516 kts | 64° |
| 2026-05-07 16:58 | -20.29280 | -39.07451 | 33062 ft | 516 kts | 64° |
| 2026-05-07 16:58 | -20.25861 | -39.00731 | 33057 ft | 517 kts | 64° |
| 2026-05-07 16:59 | -20.22418 | -38.93972 | 33055 ft | 517 kts | 64° |
| 2026-05-07 16:59 | -20.18993 | -38.87257 | 33055 ft | 517 kts | 64° |
| 2026-05-07 17:00 | -20.15570 | -38.80553 | 33055 ft | 517 kts | 64° |
| 2026-05-07 17:00 | -20.12155 | -38.73838 | 33055 ft | 517 kts | 63° |
| 2026-05-07 17:01 | -20.08724 | -38.67139 | 33055 ft | 516 kts | 63° |
| 2026-05-07 17:01 | -20.05287 | -38.60444 | 33055 ft | 516 kts | 63° |
| 2026-05-07 17:02 | -20.01848 | -38.53750 | 33055 ft | 517 kts | 63° |
| 2026-05-07 17:02 | -19.98385 | -38.47010 | 33055 ft | 517 kts | 63° |
| 2026-05-07 17:03 | -19.94938 | -38.40326 | 33056 ft | 517 kts | 63° |
| 2026-05-07 17:03 | -19.91484 | -38.33637 | 33056 ft | 516 kts | 63° |
| 2026-05-07 17:04 | -19.88035 | -38.26965 | 33056 ft | 516 kts | 63° |
| 2026-05-07 17:04 | -19.84580 | -38.20288 | 33057 ft | 516 kts | 63° |
| 2026-05-07 17:05 | -19.81114 | -38.13556 | 33057 ft | 516 kts | 63° |
| 2026-05-07 17:05 | -19.77670 | -38.06872 | 33050 ft | 517 kts | 63° |
| 2026-05-07 17:06 | -19.74222 | -38.00203 | 33049 ft | 516 kts | 63° |
| 2026-05-07 17:06 | -19.70765 | -37.93533 | 33049 ft | 517 kts | 62° |
| 2026-05-07 17:07 | -19.67302 | -37.86858 | 33049 ft | 517 kts | 62° |
| 2026-05-07 17:07 | -19.63840 | -37.80196 | 33049 ft | 517 kts | 62° |
| 2026-05-07 17:08 | -19.60378 | -37.73542 | 33049 ft | 516 kts | 62° |
| 2026-05-07 17:08 | -19.56914 | -37.66889 | 33049 ft | 516 kts | 62° |
| 2026-05-07 17:09 | -19.53432 | -37.60211 | 33048 ft | 515 kts | 62° |
| 2026-05-07 17:09 | -19.49969 | -37.53577 | 33048 ft | 514 kts | 62° |
| 2026-05-07 17:10 | -19.46510 | -37.46957 | 33048 ft | 514 kts | 62° |
| 2026-05-07 17:10 | -19.43059 | -37.40359 | 33048 ft | 514 kts | 62° |
| 2026-05-07 17:11 | -19.39595 | -37.33746 | 33048 ft | 513 kts | 62° |
| 2026-05-07 17:11 | -19.36114 | -37.27106 | 33047 ft | 513 kts | 62° |
| 2026-05-07 17:12 | -19.32654 | -37.20513 | 33047 ft | 512 kts | 62° |
| 2026-05-07 17:12 | -19.29196 | -37.13931 | 33047 ft | 512 kts | 62° |
| 2026-05-07 17:13 | -19.25756 | -37.07360 | 33047 ft | 511 kts | 62° |
| 2026-05-07 17:13 | -19.22297 | -37.00798 | 33047 ft | 511 kts | 62° |
| 2026-05-07 17:14 | -19.18832 | -36.94237 | 33047 ft | 511 kts | 62° |
| 2026-05-07 17:14 | -19.15367 | -36.87679 | 33046 ft | 511 kts | 62° |
| 2026-05-07 17:15 | -19.12030 | -36.81002 | 33047 ft | 513 kts | 65° |
| 2026-05-07 17:15 | -19.09066 | -36.74124 | 33047 ft | 515 kts | 67° |
| 2026-05-07 17:16 | -19.06119 | -36.67249 | 33046 ft | 514 kts | 66° |
| 2026-05-07 17:16 | -19.03146 | -36.60388 | 33045 ft | 514 kts | 66° |
| 2026-05-07 17:17 | -19.00166 | -36.53543 | 33045 ft | 514 kts | 66° |
| 2026-05-07 17:17 | -18.97196 | -36.46688 | 33046 ft | 514 kts | 66° |
| 2026-05-07 17:18 | -18.94203 | -36.39782 | 33045 ft | 514 kts | 66° |
| 2026-05-07 17:18 | -18.91224 | -36.32942 | 33045 ft | 513 kts | 66° |
| 2026-05-07 17:19 | -18.88240 | -36.26108 | 33045 ft | 513 kts | 66° |
| 2026-05-07 17:19 | -18.85251 | -36.19272 | 33044 ft | 514 kts | 66° |
| 2026-05-07 17:20 | -18.82257 | -36.12432 | 33044 ft | 514 kts | 66° |
| 2026-05-07 17:20 | -18.79264 | -36.05607 | 33044 ft | 513 kts | 66° |
| 2026-05-07 17:21 | -18.76250 | -35.98739 | 33043 ft | 513 kts | 66° |
| 2026-05-07 17:21 | -18.73251 | -35.91915 | 33044 ft | 513 kts | 65° |
| 2026-05-07 17:22 | -18.70250 | -35.85095 | 33043 ft | 514 kts | 65° |
| 2026-05-07 17:22 | -18.67246 | -35.78275 | 33043 ft | 514 kts | 65° |
| 2026-05-07 17:23 | -18.64238 | -35.71455 | 33043 ft | 514 kts | 65° |
| 2026-05-07 17:23 | -18.61228 | -35.64639 | 33043 ft | 514 kts | 65° |
| 2026-05-07 17:24 | -18.58213 | -35.57819 | 33042 ft | 514 kts | 65° |
| 2026-05-07 17:24 | -18.55176 | -35.50955 | 33042 ft | 514 kts | 65° |
| 2026-05-07 17:25 | -18.52157 | -35.44141 | 33042 ft | 514 kts | 65° |
| 2026-05-07 17:25 | -18.48306 | -35.37892 | 33044 ft | 514 kts | 46° |
| 2026-05-07 17:26 | -18.42996 | -35.32859 | 33042 ft | 514 kts | 40° |
| 2026-05-07 17:26 | -18.37567 | -35.27983 | 33041 ft | 514 kts | 40° |
| 2026-05-07 17:27 | -18.32256 | -35.22971 | 33041 ft | 513 kts | 42° |
| 2026-05-07 17:27 | -18.27066 | -35.17821 | 33042 ft | 514 kts | 44° |
| 2026-05-07 17:28 | -18.21962 | -35.12509 | 33040 ft | 513 kts | 45° |
| 2026-05-07 17:28 | -18.17012 | -35.07120 | 33040 ft | 512 kts | 46° |
| 2026-05-07 17:29 | -18.12183 | -35.01636 | 33039 ft | 512 kts | 47° |
| 2026-05-07 17:29 | -18.07450 | -34.96044 | 33040 ft | 513 kts | 48° |
| 2026-05-07 17:30 | -18.02822 | -34.90358 | 33039 ft | 513 kts | 49° |
| 2026-05-07 17:30 | -17.98294 | -34.84588 | 33039 ft | 513 kts | 50° |
| 2026-05-07 17:31 | -17.93872 | -34.78712 | 33045 ft | 513 kts | 51° |
| 2026-05-07 17:31 | -17.89569 | -34.72688 | 33046 ft | 513 kts | 52° |
| 2026-05-07 17:32 | -17.85423 | -34.66606 | 33046 ft | 514 kts | 53° |
| 2026-05-07 17:32 | -17.82056 | -34.61485 | 33045 ft | 513 kts | 54° |
| 2026-05-07 17:33 | -17.77429 | -34.54209 | 33045 ft | 513 kts | 55° |
| 2026-05-07 17:33 | -17.73557 | -34.47930 | 33044 ft | 513 kts | 56° |
| 2026-05-07 17:34 | -17.69751 | -34.41600 | 33046 ft | 514 kts | 57° |
| 2026-05-07 17:34 | -17.65980 | -34.35193 | 33044 ft | 513 kts | 57° |
| 2026-05-07 17:35 | -17.62911 | -34.29887 | 33044 ft | 513 kts | 57° |
| 2026-05-07 17:35 | -17.58648 | -34.22392 | 33050 ft | 513 kts | 58° |
| 2026-05-07 17:36 | -17.55043 | -34.15930 | 33021 ft | 514 kts | 58° |
| 2026-05-07 17:36 | -17.51478 | -34.09471 | 33038 ft | 513 kts | 59° |
| 2026-05-07 17:37 | -17.48506 | -34.04033 | 33032 ft | 515 kts | 59° |
| 2026-05-07 17:37 | -17.44980 | -33.97514 | 33042 ft | 515 kts | 59° |
| 2026-05-07 17:38 | -17.41484 | -33.90984 | 33043 ft | 515 kts | 59° |
| 2026-05-07 17:38 | -17.38013 | -33.84442 | 33043 ft | 515 kts | 59° |
| 2026-05-07 17:39 | -17.34538 | -33.77840 | 33042 ft | 515 kts | 59° |
| 2026-05-07 17:39 | -17.31107 | -33.71271 | 33042 ft | 516 kts | 59° |
| 2026-05-07 17:40 | -17.27689 | -33.64684 | 33042 ft | 516 kts | 59° |
| 2026-05-07 17:40 | -17.23686 | -33.58501 | 33043 ft | 514 kts | 50° |
| 2026-05-07 17:41 | -17.19223 | -33.52693 | 33041 ft | 513 kts | 49° |
| 2026-05-07 17:41 | -17.14865 | -33.46798 | 33042 ft | 513 kts | 52° |
| 2026-05-07 17:42 | -17.11006 | -33.40453 | 33040 ft | 516 kts | 58° |
| 2026-05-07 17:42 | -17.07719 | -33.33787 | 33041 ft | 518 kts | 62° |
| 2026-05-07 17:43 | -17.04617 | -33.27006 | 33040 ft | 518 kts | 62° |
| 2026-05-07 17:43 | -17.01502 | -33.20238 | 33041 ft | 518 kts | 62° |
| 2026-05-07 17:44 | -16.98368 | -33.13466 | 33039 ft | 518 kts | 62° |
| 2026-05-07 17:44 | -16.95237 | -33.06707 | 33037 ft | 518 kts | 62° |
| 2026-05-07 17:45 | -16.92095 | -32.99936 | 33040 ft | 519 kts | 62° |
| 2026-05-07 17:45 | -16.88933 | -32.93134 | 33039 ft | 519 kts | 62° |
| 2026-05-07 17:46 | -16.85785 | -32.86367 | 33038 ft | 519 kts | 62° |
| 2026-05-07 17:46 | -16.82636 | -32.79606 | 33038 ft | 518 kts | 62° |
| 2026-05-07 17:47 | -16.79485 | -32.72847 | 33037 ft | 519 kts | 61° |
| 2026-05-07 17:47 | -16.76334 | -32.66095 | 33037 ft | 519 kts | 61° |
| 2026-05-07 17:48 | -16.73179 | -32.59342 | 33037 ft | 519 kts | 61° |
| 2026-05-07 17:48 | -16.70019 | -32.52586 | 33037 ft | 519 kts | 61° |
| 2026-05-07 17:49 | -16.66832 | -32.45780 | 33022 ft | 521 kts | 61° |
| 2026-05-07 17:49 | -16.63666 | -32.39032 | 33058 ft | 519 kts | 61° |
| 2026-05-07 17:50 | -16.60506 | -32.32282 | 33038 ft | 520 kts | 61° |
| 2026-05-07 17:50 | -16.57336 | -32.25532 | 33049 ft | 520 kts | 61° |
| 2026-05-07 17:51 | -16.54163 | -32.18782 | 33046 ft | 519 kts | 61° |
| 2026-05-07 17:51 | -16.51878 | -32.11587 | 33025 ft | 523 kts | 72° |
| 2026-05-07 17:52 | -16.50084 | -32.04232 | 33043 ft | 525 kts | 73° |
| 2026-05-07 17:52 | -16.48319 | -31.96867 | 33046 ft | 525 kts | 73° |
| 2026-05-07 17:53 | -16.46547 | -31.89495 | 33046 ft | 525 kts | 73° |
| 2026-05-07 17:53 | -16.44773 | -31.82133 | 33046 ft | 525 kts | 73° |
| 2026-05-07 17:54 | -16.42995 | -31.74767 | 33046 ft | 526 kts | 73° |
| 2026-05-07 17:54 | -16.41214 | -31.67402 | 33040 ft | 525 kts | 73° |
| 2026-05-07 17:55 | -16.39418 | -31.59986 | 33019 ft | 525 kts | 73° |
| 2026-05-07 17:55 | -16.37634 | -31.52632 | 33020 ft | 525 kts | 73° |
| 2026-05-07 17:56 | -16.35846 | -31.45269 | 33019 ft | 525 kts | 73° |
| 2026-05-07 17:56 | -16.34057 | -31.37918 | 33019 ft | 525 kts | 73° |
| 2026-05-07 17:57 | -16.32556 | -31.31758 | 33018 ft | 525 kts | 73° |
| 2026-05-07 17:57 | -16.30470 | -31.23213 | 33018 ft | 525 kts | 73° |
| 2026-05-07 17:58 | -16.28661 | -31.15816 | 33018 ft | 524 kts | 72° |
| 2026-05-07 17:58 | -16.26862 | -31.08469 | 33018 ft | 524 kts | 72° |
| 2026-05-07 17:59 | -16.25061 | -31.01126 | 33017 ft | 525 kts | 72° |
| 2026-05-07 17:59 | -16.23257 | -30.93785 | 33005 ft | 525 kts | 72° |
| 2026-05-07 18:00 | -16.21449 | -30.86437 | 33004 ft | 525 kts | 72° |
| 2026-05-07 18:00 | -16.19639 | -30.79093 | 33003 ft | 525 kts | 72° |
| 2026-05-07 18:01 | -16.17828 | -30.71753 | 33004 ft | 525 kts | 72° |
| 2026-05-07 18:01 | -16.16001 | -30.64363 | 33003 ft | 525 kts | 72° |
| 2026-05-07 18:02 | -16.13276 | -30.53360 | 33003 ft | 525 kts | 72° |
| 2026-05-07 18:03 | -16.11451 | -30.46009 | 33003 ft | 525 kts | 71° |
| 2026-05-07 18:03 | -16.09627 | -30.38669 | 33003 ft | 525 kts | 71° |
| 2026-05-07 18:04 | -16.07806 | -30.31330 | 33002 ft | 525 kts | 72° |
| 2026-05-07 18:04 | -16.05982 | -30.23935 | 33002 ft | 525 kts | 71° |
| 2026-05-07 18:05 | -16.04152 | -30.16607 | 33002 ft | 525 kts | 71° |
| 2026-05-07 18:05 | -16.02316 | -30.09266 | 32992 ft | 525 kts | 71° |
| 2026-05-07 18:06 | -16.00425 | -30.01953 | 32980 ft | 522 kts | 66° |
| 2026-05-07 18:06 | -15.97316 | -29.95202 | 32978 ft | 517 kts | 56° |
| 2026-05-07 18:07 | -15.93626 | -29.88839 | 32975 ft | 513 kts | 53° |
| 2026-05-07 18:07 | -15.89849 | -29.82500 | 32975 ft | 513 kts | 53° |
| 2026-05-07 18:08 | -15.86134 | -29.76191 | 32975 ft | 513 kts | 54° |
| 2026-05-07 18:08 | -15.82426 | -29.69864 | 32974 ft | 513 kts | 54° |
| 2026-05-07 18:09 | -15.78740 | -29.63526 | 32974 ft | 514 kts | 54° |
| 2026-05-07 18:09 | -15.75051 | -29.57196 | 32973 ft | 513 kts | 53° |
| 2026-05-07 18:10 | -15.71360 | -29.50876 | 32974 ft | 512 kts | 53° |
| 2026-05-07 18:10 | -15.67669 | -29.44565 | 32976 ft | 511 kts | 53° |
| 2026-05-07 18:11 | -15.63961 | -29.38231 | 32977 ft | 511 kts | 53° |
| 2026-05-07 18:11 | -15.60277 | -29.31944 | 32976 ft | 511 kts | 53° |
| 2026-05-07 18:12 | -15.56586 | -29.25651 | 32976 ft | 512 kts | 53° |
| 2026-05-07 18:12 | -15.52892 | -29.19358 | 32976 ft | 511 kts | 53° |
| 2026-05-07 18:13 | -15.49202 | -29.13076 | 32976 ft | 511 kts | 52° |
| 2026-05-07 18:13 | -15.45505 | -29.06788 | 32976 ft | 511 kts | 52° |
| 2026-05-07 18:14 | -15.41782 | -29.00462 | 32976 ft | 511 kts | 52° |
| 2026-05-07 18:14 | -15.38087 | -28.94188 | 32975 ft | 511 kts | 52° |
| 2026-05-07 18:15 | -15.34385 | -28.87907 | 32975 ft | 512 kts | 52° |
| 2026-05-07 18:15 | -15.30675 | -28.81618 | 32975 ft | 512 kts | 52° |
| 2026-05-07 18:16 | -15.26968 | -28.75341 | 32975 ft | 512 kts | 52° |
| 2026-05-07 18:16 | -15.23259 | -28.69064 | 32974 ft | 512 kts | 52° |
| 2026-05-07 18:17 | -15.19520 | -28.62741 | 32975 ft | 512 kts | 52° |
| 2026-05-07 18:17 | -15.15813 | -28.56479 | 32974 ft | 511 kts | 51° |
| 2026-05-07 18:18 | -15.12105 | -28.50219 | 32974 ft | 511 kts | 51° |
| 2026-05-07 18:18 | -15.08396 | -28.43962 | 32973 ft | 511 kts | 51° |
| 2026-05-07 18:19 | -15.04674 | -28.37690 | 32974 ft | 513 kts | 51° |
| 2026-05-07 18:19 | -15.00945 | -28.31410 | 32974 ft | 512 kts | 51° |
| 2026-05-07 18:20 | -14.97219 | -28.25140 | 32974 ft | 512 kts | 51° |
| 2026-05-07 18:20 | -14.93469 | -28.18836 | 32973 ft | 512 kts | 51° |
| 2026-05-07 18:21 | -14.89742 | -28.12574 | 32973 ft | 513 kts | 51° |
| 2026-05-07 18:21 | -14.86008 | -28.06306 | 32974 ft | 513 kts | 51° |
| 2026-05-07 18:22 | -14.82272 | -28.00039 | 32973 ft | 513 kts | 51° |
| 2026-05-07 18:22 | -14.78531 | -27.93770 | 32973 ft | 513 kts | 51° |
| 2026-05-07 18:23 | -14.74788 | -27.87503 | 32973 ft | 513 kts | 51° |
| 2026-05-07 18:23 | -14.71016 | -27.81191 | 32973 ft | 513 kts | 51° |
| 2026-05-07 18:24 | -14.67275 | -27.74936 | 32972 ft | 512 kts | 51° |
| 2026-05-07 18:24 | -14.63538 | -27.68693 | 32973 ft | 512 kts | 51° |
| 2026-05-07 18:25 | -14.59797 | -27.62449 | 32973 ft | 512 kts | 51° |
| 2026-05-07 18:25 | -14.56051 | -27.56200 | 32973 ft | 512 kts | 51° |
| 2026-05-07 18:26 | -14.52307 | -27.49960 | 32973 ft | 512 kts | 51° |
| 2026-05-07 18:26 | -14.48532 | -27.43673 | 32973 ft | 512 kts | 51° |
| 2026-05-07 18:27 | -14.44785 | -27.37438 | 32973 ft | 512 kts | 51° |
| 2026-05-07 18:27 | -14.41034 | -27.31201 | 32972 ft | 512 kts | 51° |
| 2026-05-07 18:28 | -14.37283 | -27.24968 | 32973 ft | 512 kts | 51° |
| 2026-05-07 18:28 | -14.33527 | -27.18732 | 32973 ft | 512 kts | 51° |
| 2026-05-07 18:29 | -14.29774 | -27.12507 | 32972 ft | 512 kts | 51° |
| 2026-05-07 18:29 | -14.26024 | -27.06290 | 32972 ft | 511 kts | 51° |
| 2026-05-07 18:30 | -14.22887 | -27.01094 | 32972 ft | 511 kts | 51° |
| 2026-05-07 18:30 | -14.19140 | -26.94890 | 32972 ft | 510 kts | 51° |
| 2026-05-07 18:31 | -14.15393 | -26.88693 | 32973 ft | 510 kts | 51° |
| 2026-05-07 18:31 | -14.11651 | -26.82508 | 32961 ft | 509 kts | 51° |
| 2026-05-07 18:32 | -14.07888 | -26.76292 | 32959 ft | 509 kts | 51° |
| 2026-05-07 18:32 | -14.04147 | -26.70119 | 32959 ft | 509 kts | 52° |
| 2026-05-07 18:33 | -14.00401 | -26.63940 | 32959 ft | 509 kts | 52° |
| 2026-05-07 18:33 | -13.96658 | -26.57774 | 32959 ft | 508 kts | 52° |
| 2026-05-07 18:34 | -13.92918 | -26.51613 | 32959 ft | 508 kts | 52° |
| 2026-05-07 18:34 | -13.89175 | -26.45454 | 32958 ft | 508 kts | 52° |
| 2026-05-07 18:35 | -13.85413 | -26.39268 | 32959 ft | 508 kts | 52° |
| 2026-05-07 18:35 | -13.81673 | -26.33123 | 32958 ft | 507 kts | 52° |
| 2026-05-07 18:36 | -13.77936 | -26.26988 | 32958 ft | 507 kts | 52° |
| 2026-05-07 18:36 | -13.74198 | -26.20855 | 32958 ft | 508 kts | 52° |
| 2026-05-07 18:37 | -13.70451 | -26.14711 | 32958 ft | 508 kts | 52° |
| 2026-05-07 18:37 | -13.66702 | -26.08568 | 32958 ft | 508 kts | 52° |
| 2026-05-07 18:38 | -13.62952 | -26.02428 | 32958 ft | 507 kts | 52° |
| 2026-05-07 18:38 | -13.59184 | -25.96265 | 32958 ft | 507 kts | 52° |
| 2026-05-07 18:39 | -13.55430 | -25.90128 | 32958 ft | 508 kts | 52° |
| 2026-05-07 18:39 | -13.51677 | -25.83996 | 32957 ft | 508 kts | 52° |
| 2026-05-07 18:40 | -13.47918 | -25.77860 | 32958 ft | 508 kts | 52° |
| 2026-05-07 18:40 | -13.44165 | -25.71737 | 32958 ft | 508 kts | 52° |
| 2026-05-07 18:41 | -13.40403 | -25.65605 | 32957 ft | 508 kts | 52° |
| 2026-05-07 18:41 | -13.36618 | -25.59438 | 32957 ft | 508 kts | 52° |
| 2026-05-07 18:42 | -13.32851 | -25.53305 | 32958 ft | 509 kts | 52° |
| 2026-05-07 18:42 | -13.29077 | -25.47166 | 32957 ft | 509 kts | 52° |
| 2026-05-07 18:43 | -13.25302 | -25.41029 | 32957 ft | 510 kts | 52° |
| 2026-05-07 18:43 | -13.21521 | -25.34887 | 32954 ft | 510 kts | 52° |
| 2026-05-07 18:44 | -13.17738 | -25.28746 | 32944 ft | 510 kts | 52° |
| 2026-05-07 18:44 | -13.13936 | -25.22559 | 32942 ft | 511 kts | 52° |
| 2026-05-07 18:45 | -13.10145 | -25.16415 | 32942 ft | 511 kts | 52° |
| 2026-05-07 18:45 | -13.06346 | -25.10268 | 32943 ft | 511 kts | 52° |
| 2026-05-07 18:46 | -13.02552 | -25.04129 | 32943 ft | 511 kts | 52° |
| 2026-05-07 18:46 | -12.98766 | -24.97968 | 32942 ft | 512 kts | 53° |
| 2026-05-07 18:47 | -12.95112 | -24.91708 | 32943 ft | 513 kts | 53° |
| 2026-05-07 18:47 | -12.91430 | -24.85399 | 32943 ft | 513 kts | 53° |
| 2026-05-07 18:48 | -12.87768 | -24.79148 | 32942 ft | 513 kts | 53° |
| 2026-05-07 18:48 | -12.84094 | -24.72887 | 32943 ft | 514 kts | 53° |
| 2026-05-07 18:49 | -12.80425 | -24.66620 | 32942 ft | 514 kts | 53° |
| 2026-05-07 18:49 | -12.76752 | -24.60345 | 32943 ft | 514 kts | 53° |
| 2026-05-07 18:50 | -12.73072 | -24.54071 | 32943 ft | 514 kts | 53° |
| 2026-05-07 18:50 | -12.69392 | -24.47808 | 32943 ft | 514 kts | 53° |
| 2026-05-07 18:51 | -12.65679 | -24.41494 | 32943 ft | 514 kts | 53° |
| 2026-05-07 18:51 | -12.61993 | -24.35231 | 32943 ft | 515 kts | 53° |
| 2026-05-07 18:52 | -12.58297 | -24.28956 | 32944 ft | 516 kts | 53° |
| 2026-05-07 18:52 | -12.54596 | -24.22675 | 32943 ft | 516 kts | 53° |
| 2026-05-07 18:53 | -12.50895 | -24.16400 | 32943 ft | 516 kts | 54° |
| 2026-05-07 18:53 | -12.47192 | -24.10126 | 32943 ft | 516 kts | 54° |
| 2026-05-07 18:54 | -12.43463 | -24.03811 | 32944 ft | 516 kts | 54° |
| 2026-05-07 18:54 | -12.39751 | -23.97531 | 32944 ft | 517 kts | 54° |
| 2026-05-07 18:55 | -12.36037 | -23.91250 | 32943 ft | 517 kts | 54° |
| 2026-05-07 18:55 | -12.32324 | -23.84975 | 32943 ft | 517 kts | 54° |
| 2026-05-07 18:56 | -12.28607 | -23.78698 | 32943 ft | 517 kts | 54° |
| 2026-05-07 18:56 | -12.24889 | -23.72425 | 32944 ft | 517 kts | 54° |
| 2026-05-07 18:57 | -12.21171 | -23.66155 | 32943 ft | 517 kts | 54° |
| 2026-05-07 18:57 | -12.17427 | -23.59844 | 32944 ft | 517 kts | 54° |
| 2026-05-07 18:58 | -12.13700 | -23.53567 | 32944 ft | 517 kts | 54° |
| 2026-05-07 18:58 | -12.09972 | -23.47292 | 32943 ft | 517 kts | 54° |
| 2026-05-07 18:59 | -12.06251 | -23.41033 | 32944 ft | 516 kts | 53° |
| 2026-05-07 18:59 | -12.02529 | -23.34776 | 32944 ft | 516 kts | 53° |
| 2026-05-07 19:00 | -11.98802 | -23.28517 | 32944 ft | 516 kts | 54° |
| 2026-05-07 19:00 | -11.95050 | -23.22217 | 32944 ft | 516 kts | 54° |
| 2026-05-07 19:01 | -11.91325 | -23.15969 | 32944 ft | 516 kts | 54° |
| 2026-05-07 19:01 | -11.87599 | -23.09722 | 32944 ft | 516 kts | 54° |
| 2026-05-07 19:02 | -11.83870 | -23.03473 | 32945 ft | 516 kts | 54° |
| 2026-05-07 19:02 | -11.80145 | -22.97236 | 32944 ft | 515 kts | 54° |
| 2026-05-07 19:03 | -11.76421 | -22.91004 | 32944 ft | 516 kts | 54° |
| 2026-05-07 19:03 | -11.72690 | -22.84766 | 32944 ft | 516 kts | 54° |
| 2026-05-07 19:04 | -11.68932 | -22.78485 | 32944 ft | 516 kts | 54° |
| 2026-05-07 19:04 | -11.65200 | -22.72253 | 32944 ft | 515 kts | 54° |
| 2026-05-07 19:05 | -11.61469 | -22.66024 | 32944 ft | 515 kts | 54° |
| 2026-05-07 19:05 | -11.57735 | -22.59796 | 32948 ft | 515 kts | 54° |
| 2026-05-07 19:06 | -11.54002 | -22.53572 | 32949 ft | 515 kts | 54° |
| 2026-05-07 19:06 | -11.48371 | -22.44193 | 32949 ft | 515 kts | 54° |
| 2026-05-07 19:07 | -11.44635 | -22.37974 | 32949 ft | 515 kts | 54° |
| 2026-05-07 19:07 | -11.40897 | -22.31757 | 32948 ft | 515 kts | 54° |
| 2026-05-07 19:08 | -11.37158 | -22.25541 | 32948 ft | 515 kts | 54° |
| 2026-05-07 19:08 | -11.33418 | -22.19327 | 32948 ft | 515 kts | 54° |
| 2026-05-07 19:09 | -11.29672 | -22.13107 | 32944 ft | 515 kts | 54° |
| 2026-05-07 19:09 | -11.25929 | -22.06896 | 32944 ft | 515 kts | 54° |
| 2026-05-07 19:10 | -11.22163 | -22.00651 | 32944 ft | 515 kts | 54° |
| 2026-05-07 19:10 | -11.18412 | -21.94433 | 32944 ft | 516 kts | 54° |
| 2026-05-07 19:11 | -11.14656 | -21.88213 | 32944 ft | 517 kts | 54° |
| 2026-05-07 19:11 | -11.10901 | -21.81995 | 32944 ft | 516 kts | 54° |
| 2026-05-07 19:12 | -11.07145 | -21.75782 | 32944 ft | 516 kts | 54° |
| 2026-05-07 19:12 | -11.03388 | -21.69569 | 32944 ft | 516 kts | 54° |
| 2026-05-07 19:13 | -10.99599 | -21.63309 | 32944 ft | 516 kts | 54° |
| 2026-05-07 19:13 | -10.95839 | -21.57099 | 32944 ft | 516 kts | 54° |
| 2026-05-07 19:14 | -10.92080 | -21.50896 | 32944 ft | 516 kts | 54° |
| 2026-05-07 19:14 | -10.88316 | -21.44687 | 32943 ft | 516 kts | 54° |
| 2026-05-07 19:15 | -10.84553 | -21.38483 | 32943 ft | 516 kts | 54° |
| 2026-05-07 19:15 | -10.80783 | -21.32271 | 32944 ft | 517 kts | 54° |
| 2026-05-07 19:16 | -10.76985 | -21.26017 | 32944 ft | 517 kts | 54° |
| 2026-05-07 19:16 | -10.73215 | -21.19813 | 32943 ft | 517 kts | 54° |
| 2026-05-07 19:17 | -10.69444 | -21.13611 | 32943 ft | 517 kts | 54° |
| 2026-05-07 19:17 | -10.65672 | -21.07410 | 32943 ft | 516 kts | 54° |
| 2026-05-07 19:18 | -10.61900 | -21.01213 | 32932 ft | 516 kts | 54° |
| 2026-05-07 19:18 | -10.58099 | -20.94972 | 32932 ft | 516 kts | 54° |
| 2026-05-07 19:19 | -10.54325 | -20.88778 | 32932 ft | 516 kts | 54° |
| 2026-05-07 19:19 | -10.50547 | -20.82582 | 32932 ft | 516 kts | 54° |
| 2026-05-07 19:20 | -10.46770 | -20.76391 | 32931 ft | 516 kts | 54° |
| 2026-05-07 19:20 | -10.42991 | -20.70201 | 32932 ft | 516 kts | 54° |
| 2026-05-07 19:21 | -10.39213 | -20.64015 | 32932 ft | 516 kts | 54° |
| 2026-05-07 19:21 | -10.36046 | -20.58832 | 32932 ft | 517 kts | 54° |
| 2026-05-07 19:22 | -10.32264 | -20.52644 | 32932 ft | 516 kts | 54° |
| 2026-05-07 19:22 | -10.28481 | -20.46460 | 32932 ft | 516 kts | 54° |
| 2026-05-07 19:23 | -10.24697 | -20.40278 | 32932 ft | 516 kts | 54° |
| 2026-05-07 19:23 | -10.20909 | -20.34091 | 32932 ft | 516 kts | 55° |
| 2026-05-07 19:24 | -10.17098 | -20.27870 | 32932 ft | 517 kts | 55° |
| 2026-05-07 19:24 | -10.13318 | -20.21690 | 32932 ft | 516 kts | 55° |
| 2026-05-07 19:25 | -10.09530 | -20.15517 | 32932 ft | 516 kts | 55° |
| 2026-05-07 19:25 | -10.05737 | -20.09340 | 32932 ft | 516 kts | 55° |
| 2026-05-07 19:26 | -10.01945 | -20.03167 | 32932 ft | 516 kts | 55° |
| 2026-05-07 19:26 | -9.97909 | -19.97173 | 32933 ft | 515 kts | 49° |
| 2026-05-07 19:27 | -9.93414 | -19.91484 | 32932 ft | 513 kts | 47° |
| 2026-05-07 19:27 | -9.88930 | -19.85875 | 32932 ft | 513 kts | 48° |
| 2026-05-07 19:28 | -9.84472 | -19.80245 | 32931 ft | 513 kts | 48° |
| 2026-05-07 19:28 | -9.80024 | -19.74611 | 32930 ft | 512 kts | 48° |
| 2026-05-07 19:29 | -9.75588 | -19.68970 | 32930 ft | 512 kts | 48° |
| 2026-05-07 19:29 | -9.71153 | -19.63331 | 32930 ft | 512 kts | 48° |
| 2026-05-07 19:30 | -9.66717 | -19.57696 | 32930 ft | 512 kts | 48° |
| 2026-05-07 19:30 | -9.62254 | -19.52033 | 32930 ft | 511 kts | 48° |
| 2026-05-07 19:31 | -9.57823 | -19.46413 | 32931 ft | 511 kts | 48° |
| 2026-05-07 19:31 | -9.53393 | -19.40796 | 32930 ft | 511 kts | 48° |
| 2026-05-07 19:32 | -9.48963 | -19.35183 | 32930 ft | 511 kts | 49° |
| 2026-05-07 19:32 | -9.44529 | -19.29567 | 32931 ft | 511 kts | 49° |
| 2026-05-07 19:33 | -9.40071 | -19.23924 | 32931 ft | 510 kts | 49° |
| 2026-05-07 19:33 | -9.35646 | -19.18324 | 32931 ft | 510 kts | 49° |
| 2026-05-07 19:34 | -9.31218 | -19.12724 | 32931 ft | 510 kts | 49° |
| 2026-05-07 19:34 | -9.26786 | -19.07120 | 32931 ft | 510 kts | 49° |
| 2026-05-07 19:35 | -9.22360 | -19.01528 | 32931 ft | 510 kts | 49° |
| 2026-05-07 19:35 | -9.17935 | -18.95938 | 32933 ft | 510 kts | 49° |
| 2026-05-07 19:36 | -9.13509 | -18.90350 | 32933 ft | 509 kts | 49° |
| 2026-05-07 19:36 | -9.09051 | -18.84725 | 32933 ft | 509 kts | 49° |
| 2026-05-07 19:37 | -9.04625 | -18.79142 | 32933 ft | 509 kts | 49° |
| 2026-05-07 19:37 | -9.00199 | -18.73560 | 32933 ft | 509 kts | 49° |
| 2026-05-07 19:38 | -8.95780 | -18.67991 | 32933 ft | 509 kts | 49° |
| 2026-05-07 19:38 | -8.91325 | -18.62379 | 32933 ft | 509 kts | 49° |
| 2026-05-07 19:39 | -8.86905 | -18.56813 | 32933 ft | 508 kts | 49° |
| 2026-05-07 19:39 | -8.82482 | -18.51246 | 32934 ft | 508 kts | 49° |
| 2026-05-07 19:40 | -8.78065 | -18.45689 | 32934 ft | 508 kts | 49° |
| 2026-05-07 19:40 | -8.73654 | -18.40142 | 32934 ft | 507 kts | 49° |
| 2026-05-07 19:41 | -8.69237 | -18.34589 | 32933 ft | 507 kts | 49° |
| 2026-05-07 19:41 | -8.64798 | -18.29011 | 32934 ft | 507 kts | 49° |
| 2026-05-07 19:42 | -8.60389 | -18.23473 | 32933 ft | 506 kts | 49° |
| 2026-05-07 19:42 | -8.55977 | -18.17934 | 32933 ft | 506 kts | 49° |
| 2026-05-07 19:43 | -8.51576 | -18.12410 | 32934 ft | 506 kts | 50° |
| 2026-05-07 19:43 | -8.47168 | -18.06880 | 32934 ft | 505 kts | 50° |
| 2026-05-07 19:44 | -8.42767 | -18.01361 | 32934 ft | 505 kts | 50° |
| 2026-05-07 19:44 | -8.38336 | -17.95807 | 32933 ft | 505 kts | 50° |
| 2026-05-07 19:45 | -8.33930 | -17.90287 | 32933 ft | 505 kts | 50° |
| 2026-05-07 19:45 | -8.29529 | -17.84774 | 32933 ft | 505 kts | 50° |
| 2026-05-07 19:46 | -8.25123 | -17.79257 | 32932 ft | 505 kts | 50° |
| 2026-05-07 19:46 | -8.20721 | -17.73748 | 32933 ft | 505 kts | 50° |
| 2026-05-07 19:47 | -8.16286 | -17.68200 | 32933 ft | 505 kts | 50° |
| 2026-05-07 19:47 | -8.11881 | -17.62692 | 32933 ft | 505 kts | 50° |
| 2026-05-07 19:48 | -8.07473 | -17.57182 | 32933 ft | 505 kts | 50° |
| 2026-05-07 19:48 | -8.03066 | -17.51674 | 32933 ft | 505 kts | 50° |
| 2026-05-07 19:49 | -7.98655 | -17.46165 | 32934 ft | 505 kts | 50° |
| 2026-05-07 19:49 | -7.94246 | -17.40660 | 32932 ft | 504 kts | 50° |
| 2026-05-07 19:50 | -7.89850 | -17.35173 | 32932 ft | 504 kts | 50° |
| 2026-05-07 19:50 | -7.85420 | -17.29646 | 32932 ft | 504 kts | 50° |
| 2026-05-07 19:51 | -7.81021 | -17.24159 | 32932 ft | 504 kts | 50° |
| 2026-05-07 19:51 | -7.76623 | -17.18676 | 32932 ft | 504 kts | 50° |
| 2026-05-07 19:52 | -7.72220 | -17.13189 | 32932 ft | 504 kts | 50° |
| 2026-05-07 19:52 | -7.67823 | -17.07711 | 32933 ft | 503 kts | 50° |
| 2026-05-07 19:53 | -7.63422 | -17.02231 | 32933 ft | 504 kts | 50° |
| 2026-05-07 19:53 | -7.58992 | -16.96715 | 32933 ft | 504 kts | 50° |
| 2026-05-07 19:54 | -7.54584 | -16.91229 | 32932 ft | 504 kts | 50° |
| 2026-05-07 19:54 | -7.50182 | -16.85754 | 32932 ft | 504 kts | 50° |
| 2026-05-07 19:55 | -7.45779 | -16.80278 | 32932 ft | 504 kts | 50° |
| 2026-05-07 19:55 | -7.41375 | -16.74803 | 33347 ft | 503 kts | 50° |
| 2026-05-07 19:56 | -7.39178 | -16.72073 | 33771 ft | 501 kts | 50° |
| 2026-05-07 19:56 | -7.36990 | -16.69353 | 34160 ft | 500 kts | 50° |
| 2026-05-07 19:56 | -7.34804 | -16.66638 | 34478 ft | 499 kts | 50° |
| 2026-05-07 19:56 | -7.32621 | -16.63926 | 34804 ft | 498 kts | 50° |
| 2026-05-07 19:57 | -7.30410 | -16.61180 | 34913 ft | 499 kts | 50° |
| 2026-05-07 19:57 | -7.28226 | -16.58470 | 34931 ft | 498 kts | 50° |
| 2026-05-07 19:57 | -7.23873 | -16.53066 | 34932 ft | 498 kts | 50° |
| 2026-05-07 19:58 | -7.19518 | -16.47660 | 34933 ft | 497 kts | 50° |
| 2026-05-07 19:58 | -7.15169 | -16.42265 | 34933 ft | 497 kts | 50° |
| 2026-05-07 19:59 | -7.10816 | -16.36866 | 34933 ft | 497 kts | 50° |
| 2026-05-07 19:59 | -7.06463 | -16.31470 | 34933 ft | 496 kts | 50° |
| 2026-05-07 20:00 | -7.02091 | -16.26051 | 34933 ft | 496 kts | 50° |
| 2026-05-07 20:00 | -6.97747 | -16.20669 | 34933 ft | 496 kts | 50° |
| 2026-05-07 20:01 | -6.93400 | -16.15286 | 34933 ft | 496 kts | 50° |
| 2026-05-07 20:01 | -6.89058 | -16.09910 | 34934 ft | 495 kts | 50° |
| 2026-05-07 20:02 | -6.84722 | -16.04542 | 34933 ft | 495 kts | 50° |
| 2026-05-07 20:02 | -6.80386 | -15.99178 | 34933 ft | 495 kts | 50° |
| 2026-05-07 20:03 | -6.76051 | -15.93816 | 34933 ft | 495 kts | 50° |
| 2026-05-07 20:03 | -6.71685 | -15.88417 | 34933 ft | 495 kts | 50° |
| 2026-05-07 20:04 | -6.67353 | -15.83062 | 34933 ft | 494 kts | 50° |
| 2026-05-07 20:04 | -6.63030 | -15.77718 | 34933 ft | 493 kts | 50° |
| 2026-05-07 20:05 | -6.58705 | -15.72376 | 34933 ft | 493 kts | 50° |
| 2026-05-07 20:05 | -6.54382 | -15.67037 | 34934 ft | 493 kts | 50° |
| 2026-05-07 20:06 | -6.50053 | -15.61692 | 34932 ft | 493 kts | 50° |
| 2026-05-07 20:06 | -6.45732 | -15.56358 | 34934 ft | 493 kts | 50° |
| 2026-05-07 20:07 | -6.41377 | -15.50985 | 34933 ft | 493 kts | 50° |
| 2026-05-07 20:07 | -6.37050 | -15.45647 | 34931 ft | 493 kts | 50° |
| 2026-05-07 20:08 | -6.32725 | -15.40313 | 34933 ft | 493 kts | 50° |
| 2026-05-07 20:08 | -6.28395 | -15.34975 | 34933 ft | 493 kts | 50° |
| 2026-05-07 20:09 | -6.24067 | -15.29641 | 34933 ft | 493 kts | 50° |
| 2026-05-07 20:10 | -6.17546 | -15.21600 | 34933 ft | 493 kts | 50° |
| 2026-05-07 20:10 | -6.13216 | -15.16267 | 34934 ft | 494 kts | 50° |
| 2026-05-07 20:11 | -6.08881 | -15.10930 | 34933 ft | 493 kts | 50° |
| 2026-05-07 20:11 | -6.04554 | -15.05605 | 34934 ft | 493 kts | 50° |
| 2026-05-07 20:12 | -6.00225 | -15.00279 | 34933 ft | 493 kts | 50° |
| 2026-05-07 20:12 | -5.95952 | -14.94912 | 34933 ft | 492 kts | 50° |
| 2026-05-07 20:13 | -5.91704 | -14.89547 | 34934 ft | 492 kts | 50° |
| 2026-05-07 20:13 | -5.87445 | -14.84174 | 34933 ft | 492 kts | 50° |
| 2026-05-07 20:14 | -5.83883 | -14.79682 | 34933 ft | 492 kts | 50° |
| 2026-05-07 20:14 | -5.79623 | -14.74312 | 34932 ft | 492 kts | 50° |
| 2026-05-07 20:15 | -5.75373 | -14.68948 | 34931 ft | 491 kts | 50° |
| 2026-05-07 20:15 | -5.71095 | -14.63550 | 34931 ft | 491 kts | 50° |
| 2026-05-07 20:16 | -5.66842 | -14.58188 | 34932 ft | 492 kts | 50° |
| 2026-05-07 20:16 | -5.62587 | -14.52827 | 34932 ft | 492 kts | 50° |
| 2026-05-07 20:17 | -5.58337 | -14.47473 | 34931 ft | 491 kts | 50° |
| 2026-05-07 20:17 | -5.54081 | -14.42113 | 34931 ft | 492 kts | 50° |
| 2026-05-07 20:18 | -5.49824 | -14.36753 | 34931 ft | 492 kts | 50° |
| 2026-05-07 20:18 | -5.45539 | -14.31361 | 34931 ft | 492 kts | 50° |
| 2026-05-07 20:19 | -5.41281 | -14.26002 | 34931 ft | 492 kts | 50° |
| 2026-05-07 20:19 | -5.37028 | -14.20652 | 34930 ft | 491 kts | 50° |
| 2026-05-07 20:20 | -5.32770 | -14.15297 | 34930 ft | 491 kts | 50° |
| 2026-05-07 20:20 | -5.28515 | -14.09948 | 34930 ft | 491 kts | 50° |
| 2026-05-07 20:21 | -5.24259 | -14.04598 | 34929 ft | 490 kts | 50° |
| 2026-05-07 20:21 | -5.20012 | -13.99260 | 34929 ft | 490 kts | 50° |
| 2026-05-07 20:22 | -5.15742 | -13.93895 | 34929 ft | 490 kts | 50° |
| 2026-05-07 20:22 | -5.11498 | -13.88564 | 34929 ft | 489 kts | 50° |
| 2026-05-07 20:23 | -5.07259 | -13.83241 | 34929 ft | 489 kts | 50° |
| 2026-05-07 20:23 | -5.03017 | -13.77914 | 34928 ft | 489 kts | 50° |
| 2026-05-07 20:24 | -4.98779 | -13.72595 | 34928 ft | 489 kts | 50° |
| 2026-05-07 20:24 | -4.94538 | -13.67273 | 34928 ft | 489 kts | 50° |
| 2026-05-07 20:25 | -4.90271 | -13.61919 | 34928 ft | 489 kts | 50° |
| 2026-05-07 20:25 | -4.86032 | -13.56601 | 34930 ft | 489 kts | 50° |
| 2026-05-07 20:26 | -4.81793 | -13.51286 | 34930 ft | 489 kts | 50° |
| 2026-05-07 20:26 | -4.77560 | -13.45978 | 34930 ft | 488 kts | 50° |
| 2026-05-07 20:27 | -4.73322 | -13.40665 | 34930 ft | 488 kts | 50° |
| 2026-05-07 20:27 | -4.69085 | -13.35354 | 34930 ft | 488 kts | 50° |
| 2026-05-07 20:28 | -4.64847 | -13.30045 | 34930 ft | 488 kts | 50° |
| 2026-05-07 20:28 | -4.60584 | -13.24704 | 34930 ft | 488 kts | 51° |
| 2026-05-07 20:29 | -4.56348 | -13.19398 | 34929 ft | 488 kts | 51° |
| 2026-05-07 20:29 | -4.52119 | -13.14104 | 34924 ft | 488 kts | 51° |
| 2026-05-07 20:30 | -4.47884 | -13.08801 | 34923 ft | 488 kts | 51° |
| 2026-05-07 20:30 | -4.43649 | -13.03500 | 34923 ft | 488 kts | 51° |
| 2026-05-07 20:31 | -4.39385 | -12.98165 | 34922 ft | 488 kts | 51° |
| 2026-05-07 20:31 | -4.35149 | -12.92864 | 34922 ft | 489 kts | 51° |
| 2026-05-07 20:32 | -4.30907 | -12.87558 | 34922 ft | 488 kts | 51° |
| 2026-05-07 20:32 | -4.26669 | -12.82257 | 34921 ft | 489 kts | 51° |
| 2026-05-07 20:33 | -4.22420 | -12.76944 | 34922 ft | 489 kts | 51° |
| 2026-05-07 20:33 | -4.18171 | -12.71632 | 34920 ft | 489 kts | 51° |
| 2026-05-07 20:34 | -4.13895 | -12.66287 | 34920 ft | 490 kts | 51° |
| 2026-05-07 20:34 | -4.09645 | -12.60975 | 34920 ft | 490 kts | 51° |
| 2026-05-07 20:35 | -4.05390 | -12.55659 | 34919 ft | 490 kts | 51° |
| 2026-05-07 20:35 | -4.01138 | -12.50348 | 34930 ft | 489 kts | 51° |
| 2026-05-07 20:36 | -3.96890 | -12.45042 | 34940 ft | 488 kts | 51° |
| 2026-05-07 20:36 | -3.92647 | -12.39743 | 34940 ft | 488 kts | 51° |
| 2026-05-07 20:37 | -3.88404 | -12.34445 | 34939 ft | 488 kts | 51° |
| 2026-05-07 20:37 | -3.84133 | -12.29114 | 34938 ft | 488 kts | 51° |
| 2026-05-07 20:38 | -3.79890 | -12.23818 | 34938 ft | 488 kts | 51° |
| 2026-05-07 20:38 | -3.75646 | -12.18521 | 34937 ft | 488 kts | 51° |
| 2026-05-07 20:39 | -3.71406 | -12.13231 | 34936 ft | 488 kts | 51° |
| 2026-05-07 20:39 | -3.67161 | -12.07935 | 34935 ft | 488 kts | 51° |
| 2026-05-07 20:40 | -3.62886 | -12.02603 | 34935 ft | 488 kts | 51° |
| 2026-05-07 20:40 | -3.58640 | -11.97308 | 34934 ft | 489 kts | 51° |
| 2026-05-07 20:41 | -3.54388 | -11.92007 | 34933 ft | 490 kts | 51° |
| 2026-05-07 20:41 | -3.50130 | -11.86699 | 34933 ft | 489 kts | 51° |
| 2026-05-07 20:42 | -3.45882 | -11.81404 | 34932 ft | 489 kts | 51° |
| 2026-05-07 20:42 | -3.41634 | -11.76110 | 34931 ft | 488 kts | 51° |
| 2026-05-07 20:43 | -3.37388 | -11.70819 | 34931 ft | 488 kts | 51° |
| 2026-05-07 20:43 | -3.33108 | -11.65486 | 34930 ft | 488 kts | 51° |
| 2026-05-07 20:44 | -3.28858 | -11.60193 | 34929 ft | 488 kts | 51° |
| 2026-05-07 20:44 | -3.24610 | -11.54901 | 34928 ft | 488 kts | 51° |
| 2026-05-07 20:45 | -3.20364 | -11.49614 | 34928 ft | 489 kts | 51° |
| 2026-05-07 20:45 | -3.16115 | -11.44323 | 34927 ft | 488 kts | 51° |
| 2026-05-07 20:46 | -3.11867 | -11.39036 | 34927 ft | 487 kts | 51° |
| 2026-05-07 20:46 | -3.07628 | -11.33759 | 34926 ft | 487 kts | 51° |
| 2026-05-07 20:47 | -3.03384 | -11.28477 | 34925 ft | 488 kts | 51° |
| 2026-05-07 20:47 | -2.99117 | -11.23166 | 34924 ft | 488 kts | 51° |
| 2026-05-07 20:48 | -2.94868 | -11.17880 | 34924 ft | 488 kts | 51° |
| 2026-05-07 20:48 | -2.90627 | -11.12604 | 34923 ft | 488 kts | 51° |
| 2026-05-07 20:49 | -2.86382 | -11.07323 | 34922 ft | 488 kts | 51° |
| 2026-05-07 20:49 | -2.82137 | -11.02043 | 34921 ft | 488 kts | 51° |
| 2026-05-07 20:50 | -2.77862 | -10.96728 | 34921 ft | 487 kts | 51° |
| 2026-05-07 20:50 | -2.73629 | -10.91464 | 34920 ft | 487 kts | 51° |
| 2026-05-07 20:51 | -2.69390 | -10.86194 | 34919 ft | 487 kts | 51° |
| 2026-05-07 20:51 | -2.65145 | -10.80917 | 34919 ft | 488 kts | 51° |
| 2026-05-07 20:52 | -2.60893 | -10.75631 | 34918 ft | 488 kts | 51° |
| 2026-05-07 20:52 | -2.56646 | -10.70353 | 34918 ft | 488 kts | 51° |
| 2026-05-07 20:53 | -2.52372 | -10.65041 | 34917 ft | 487 kts | 51° |
| 2026-05-07 20:53 | -2.48130 | -10.59771 | 34916 ft | 487 kts | 51° |
| 2026-05-07 20:54 | -2.43886 | -10.54499 | 34916 ft | 487 kts | 51° |
| 2026-05-07 20:54 | -2.39647 | -10.49231 | 34915 ft | 486 kts | 51° |
| 2026-05-07 20:55 | -2.35414 | -10.43975 | 34914 ft | 487 kts | 51° |
| 2026-05-07 20:55 | -2.31176 | -10.38711 | 34913 ft | 487 kts | 50° |
| 2026-05-07 20:56 | -2.26932 | -10.33439 | 34913 ft | 487 kts | 50° |
| 2026-05-07 20:56 | -2.22664 | -10.28140 | 34922 ft | 487 kts | 50° |
| 2026-05-07 20:57 | -2.18424 | -10.22873 | 34922 ft | 487 kts | 50° |
| 2026-05-07 20:57 | -2.14186 | -10.17610 | 34922 ft | 486 kts | 50° |
| 2026-05-07 20:58 | -2.09953 | -10.12356 | 34920 ft | 486 kts | 50° |
| 2026-05-07 20:58 | -2.05719 | -10.07099 | 34920 ft | 486 kts | 50° |
| 2026-05-07 20:59 | -2.01454 | -10.01809 | 34921 ft | 486 kts | 50° |
| 2026-05-07 20:59 | -1.97459 | -9.96362 | 34919 ft | 487 kts | 55° |
| 2026-05-07 21:00 | -1.93750 | -9.90719 | 34918 ft | 487 kts | 56° |
| 2026-05-07 21:00 | -1.90032 | -9.85076 | 34918 ft | 487 kts | 56° |
| 2026-05-07 21:01 | -1.86297 | -9.79443 | 34918 ft | 487 kts | 56° |
| 2026-05-07 21:01 | -1.82527 | -9.73774 | 34917 ft | 487 kts | 55° |
| 2026-05-07 21:02 | -1.78790 | -9.68156 | 34917 ft | 487 kts | 56° |
| 2026-05-07 21:02 | -1.75048 | -9.62533 | 34917 ft | 487 kts | 56° |
| 2026-05-07 21:03 | -1.71304 | -9.56910 | 34916 ft | 487 kts | 56° |
| 2026-05-07 21:03 | -1.67560 | -9.51287 | 34916 ft | 487 kts | 56° |
| 2026-05-07 21:04 | -1.63808 | -9.45654 | 34915 ft | 487 kts | 56° |
| 2026-05-07 21:04 | -1.60058 | -9.40024 | 34915 ft | 487 kts | 56° |
| 2026-05-07 21:05 | -1.56285 | -9.34359 | 34914 ft | 487 kts | 56° |
| 2026-05-07 21:05 | -1.53171 | -9.29686 | 34922 ft | 487 kts | 56° |
| 2026-05-07 21:06 | -1.48791 | -9.23112 | 34924 ft | 487 kts | 56° |
| 2026-05-07 21:06 | -1.45676 | -9.18437 | 34924 ft | 487 kts | 56° |
| 2026-05-07 21:07 | -1.41926 | -9.12808 | 34923 ft | 487 kts | 56° |
| 2026-05-07 21:07 | -1.38157 | -9.07153 | 34923 ft | 487 kts | 56° |
| 2026-05-07 21:08 | -1.34411 | -9.01532 | 34923 ft | 487 kts | 56° |
| 2026-05-07 21:08 | -1.30664 | -8.95910 | 34923 ft | 487 kts | 56° |
| 2026-05-07 21:09 | -1.26919 | -8.90291 | 34922 ft | 487 kts | 56° |
| 2026-05-07 21:09 | -1.23172 | -8.84670 | 34921 ft | 487 kts | 56° |
| 2026-05-07 21:10 | -1.19423 | -8.79047 | 34922 ft | 487 kts | 56° |
| 2026-05-07 21:10 | -1.15656 | -8.73395 | 34921 ft | 487 kts | 56° |
| 2026-05-07 21:11 | -1.11909 | -8.67774 | 34921 ft | 487 kts | 56° |
| 2026-05-07 21:11 | -1.06288 | -8.59344 | 34920 ft | 487 kts | 56° |
| 2026-05-07 21:12 | -1.02534 | -8.53714 | 34920 ft | 488 kts | 56° |
| 2026-05-07 21:12 | -0.98779 | -8.48082 | 34920 ft | 488 kts | 56° |
| 2026-05-07 21:13 | -0.95023 | -8.42450 | 34919 ft | 488 kts | 56° |
| 2026-05-07 21:13 | -0.91236 | -8.36771 | 34920 ft | 489 kts | 56° |
| 2026-05-07 21:14 | -0.87470 | -8.31124 | 34918 ft | 489 kts | 56° |
| 2026-05-07 21:14 | -0.83704 | -8.25477 | 34919 ft | 490 kts | 56° |
| 2026-05-07 21:15 | -0.79934 | -8.19824 | 34918 ft | 490 kts | 56° |
| 2026-05-07 21:15 | -0.76156 | -8.14160 | 34920 ft | 491 kts | 56° |
| 2026-05-07 21:16 | -0.72378 | -8.08496 | 34919 ft | 491 kts | 56° |
| 2026-05-07 21:16 | -0.68566 | -8.02780 | 34920 ft | 492 kts | 56° |
| 2026-05-07 21:17 | -0.64777 | -7.97100 | 34920 ft | 493 kts | 56° |
| 2026-05-07 21:17 | -0.60978 | -7.91406 | 34919 ft | 494 kts | 56° |
| 2026-05-07 21:18 | -0.57175 | -7.85704 | 34919 ft | 494 kts | 56° |
| 2026-05-07 21:18 | -0.53377 | -7.80011 | 34918 ft | 493 kts | 56° |
| 2026-05-07 21:19 | -0.49573 | -7.74309 | 34918 ft | 494 kts | 56° |
| 2026-05-07 21:19 | -0.45745 | -7.68570 | 34918 ft | 494 kts | 56° |
| 2026-05-07 21:20 | -0.41947 | -7.62878 | 34918 ft | 494 kts | 56° |
| 2026-05-07 21:20 | -0.38141 | -7.57172 | 34918 ft | 495 kts | 56° |
| 2026-05-07 21:21 | -0.34331 | -7.51462 | 34918 ft | 495 kts | 56° |
| 2026-05-07 21:21 | -0.30522 | -7.45751 | 34917 ft | 494 kts | 56° |
| 2026-05-07 21:22 | -0.26718 | -7.40050 | 34917 ft | 494 kts | 56° |
| 2026-05-07 21:22 | -0.22915 | -7.34350 | 34917 ft | 493 kts | 56° |
| 2026-05-07 21:23 | -0.19092 | -7.28620 | 34917 ft | 493 kts | 56° |
| 2026-05-07 21:23 | -0.15295 | -7.22928 | 34916 ft | 493 kts | 56° |
| 2026-05-07 21:24 | -0.11494 | -7.17230 | 34916 ft | 493 kts | 56° |
| 2026-05-07 21:24 | -0.07698 | -7.11542 | 34916 ft | 493 kts | 56° |
| 2026-05-07 21:25 | -0.03896 | -7.05842 | 34916 ft | 493 kts | 56° |
| 2026-05-07 21:25 | -0.00098 | -7.00149 | 34916 ft | 493 kts | 56° |
| 2026-05-07 21:26 | 0.03738 | -6.94454 | 34916 ft | 491 kts | 56° |
| 2026-05-07 21:26 | 0.07544 | -6.88816 | 34915 ft | 489 kts | 56° |
| 2026-05-07 21:27 | 0.11338 | -6.83192 | 34915 ft | 489 kts | 56° |
| 2026-05-07 21:27 | 0.15138 | -6.77558 | 34915 ft | 490 kts | 56° |
| 2026-05-07 21:28 | 0.18937 | -6.71924 | 34916 ft | 490 kts | 56° |
| 2026-05-07 21:28 | 0.22738 | -6.66287 | 34914 ft | 489 kts | 56° |
| 2026-05-07 21:29 | 0.26548 | -6.60635 | 34915 ft | 488 kts | 56° |
| 2026-05-07 21:29 | 0.30336 | -6.55017 | 34915 ft | 489 kts | 56° |
| 2026-05-07 21:30 | 0.34127 | -6.49394 | 34915 ft | 489 kts | 56° |
| 2026-05-07 21:30 | 0.37920 | -6.43768 | 34914 ft | 489 kts | 56° |
| 2026-05-07 21:31 | 0.41711 | -6.38145 | 34912 ft | 489 kts | 56° |
| 2026-05-07 21:31 | 0.45531 | -6.32479 | 34912 ft | 489 kts | 56° |
| 2026-05-07 21:32 | 0.49319 | -6.26859 | 34912 ft | 489 kts | 56° |
| 2026-05-07 21:32 | 0.53109 | -6.21236 | 34911 ft | 489 kts | 56° |
| 2026-05-07 21:33 | 0.56899 | -6.15615 | 34911 ft | 489 kts | 56° |
| 2026-05-07 21:33 | 0.60690 | -6.09990 | 34912 ft | 489 kts | 56° |
| 2026-05-07 21:34 | 0.64481 | -6.04366 | 34911 ft | 489 kts | 56° |
| 2026-05-07 21:34 | 0.68273 | -5.98741 | 34911 ft | 489 kts | 56° |
| 2026-05-07 21:35 | 0.72082 | -5.93089 | 34910 ft | 488 kts | 56° |
| 2026-05-07 21:35 | 0.75861 | -5.87482 | 34910 ft | 488 kts | 56° |
| 2026-05-07 21:36 | 0.79652 | -5.81858 | 34911 ft | 489 kts | 56° |
| 2026-05-07 21:36 | 0.83443 | -5.76233 | 34911 ft | 489 kts | 56° |
| 2026-05-07 21:37 | 0.87229 | -5.70614 | 34910 ft | 488 kts | 56° |
| 2026-05-07 21:37 | 0.91044 | -5.64954 | 34910 ft | 488 kts | 56° |
| 2026-05-07 21:38 | 0.94829 | -5.59336 | 34910 ft | 488 kts | 56° |
| 2026-05-07 21:38 | 0.98612 | -5.53721 | 34910 ft | 487 kts | 56° |
| 2026-05-07 21:39 | 1.02390 | -5.48114 | 34910 ft | 487 kts | 56° |
| 2026-05-07 21:39 | 1.06169 | -5.42506 | 34910 ft | 487 kts | 56° |
| 2026-05-07 21:40 | 1.09949 | -5.36895 | 34910 ft | 487 kts | 56° |
| 2026-05-07 21:40 | 1.13729 | -5.31285 | 34909 ft | 487 kts | 56° |
| 2026-05-07 21:41 | 1.17531 | -5.25640 | 34909 ft | 487 kts | 56° |
| 2026-05-07 21:41 | 1.21313 | -5.20026 | 34909 ft | 487 kts | 56° |
| 2026-05-07 21:42 | 1.25089 | -5.14420 | 34909 ft | 487 kts | 56° |
| 2026-05-07 21:42 | 1.28869 | -5.08808 | 34910 ft | 487 kts | 56° |
| 2026-05-07 21:43 | 1.32641 | -5.03207 | 34909 ft | 486 kts | 56° |
| 2026-05-07 21:43 | 1.36411 | -4.97609 | 34909 ft | 486 kts | 56° |
| 2026-05-07 21:44 | 1.40204 | -4.91976 | 34909 ft | 486 kts | 56° |
| 2026-05-07 21:44 | 1.43975 | -4.86376 | 34909 ft | 486 kts | 56° |
| 2026-05-07 21:45 | 1.47748 | -4.80772 | 34908 ft | 486 kts | 56° |
| 2026-05-07 21:45 | 1.51517 | -4.75174 | 34908 ft | 486 kts | 56° |
| 2026-05-07 21:46 | 1.55289 | -4.69571 | 34909 ft | 486 kts | 56° |
| 2026-05-07 21:46 | 1.59058 | -4.63971 | 34909 ft | 486 kts | 56° |
| 2026-05-07 21:47 | 1.62827 | -4.58371 | 34908 ft | 486 kts | 56° |
| 2026-05-07 21:47 | 1.66624 | -4.52730 | 34908 ft | 486 kts | 56° |
| 2026-05-07 21:48 | 1.70392 | -4.47131 | 34908 ft | 486 kts | 56° |
| 2026-05-07 21:48 | 1.74157 | -4.41536 | 34908 ft | 486 kts | 56° |
| 2026-05-07 21:49 | 1.77922 | -4.35942 | 34908 ft | 485 kts | 56° |
| 2026-05-07 21:49 | 1.81684 | -4.30349 | 34908 ft | 485 kts | 56° |
| 2026-05-07 21:50 | 1.85468 | -4.24723 | 34908 ft | 485 kts | 56° |
| 2026-05-07 21:50 | 1.89230 | -4.19129 | 34907 ft | 485 kts | 56° |
| 2026-05-07 21:51 | 1.93135 | -4.13637 | 34911 ft | 486 kts | 51° |
| 2026-05-07 21:51 | 1.97640 | -4.08618 | 34908 ft | 486 kts | 47° |
| 2026-05-07 21:52 | 2.02294 | -4.03738 | 34908 ft | 486 kts | 47° |
| 2026-05-07 21:52 | 2.06923 | -3.98817 | 34907 ft | 486 kts | 47° |
| 2026-05-07 21:53 | 2.11531 | -3.93891 | 34907 ft | 486 kts | 47° |
| 2026-05-07 21:53 | 2.16165 | -3.88925 | 34897 ft | 486 kts | 47° |
| 2026-05-07 21:54 | 2.20774 | -3.83984 | 34894 ft | 486 kts | 47° |
| 2026-05-07 21:54 | 2.25374 | -3.79051 | 34894 ft | 486 kts | 47° |
| 2026-05-07 21:55 | 2.29974 | -3.74116 | 34894 ft | 486 kts | 47° |
| 2026-05-07 21:55 | 2.34585 | -3.69168 | 34894 ft | 487 kts | 47° |
| 2026-05-07 21:56 | 2.39198 | -3.64218 | 34894 ft | 487 kts | 47° |
| 2026-05-07 21:56 | 2.43842 | -3.59234 | 34894 ft | 487 kts | 47° |
| 2026-05-07 21:57 | 2.48451 | -3.54287 | 34893 ft | 487 kts | 47° |
| 2026-05-07 21:57 | 2.53062 | -3.49336 | 34893 ft | 488 kts | 47° |
| 2026-05-07 21:58 | 2.57682 | -3.44376 | 34893 ft | 488 kts | 47° |
| 2026-05-07 21:58 | 2.62304 | -3.39414 | 34893 ft | 488 kts | 47° |
| 2026-05-07 21:59 | 2.66175 | -3.35257 | 34892 ft | 488 kts | 47° |
| 2026-05-07 21:59 | 2.70792 | -3.30298 | 34892 ft | 488 kts | 47° |
| 2026-05-07 22:00 | 2.75407 | -3.25341 | 34892 ft | 488 kts | 47° |
| 2026-05-07 22:00 | 2.80029 | -3.20378 | 34892 ft | 488 kts | 47° |
| 2026-05-07 22:01 | 2.84643 | -3.15421 | 34891 ft | 488 kts | 47° |
| 2026-05-07 22:01 | 2.89264 | -3.10453 | 34891 ft | 489 kts | 47° |
| 2026-05-07 22:02 | 2.93889 | -3.05481 | 34891 ft | 488 kts | 47° |
| 2026-05-07 22:02 | 2.98538 | -3.00486 | 34891 ft | 488 kts | 47° |
| 2026-05-07 22:03 | 3.03162 | -2.95531 | 34891 ft | 488 kts | 47° |
| 2026-05-07 22:03 | 3.07796 | -2.90574 | 34890 ft | 489 kts | 47° |
| 2026-05-07 22:04 | 3.12434 | -2.85607 | 34889 ft | 489 kts | 47° |
| 2026-05-07 22:04 | 3.17065 | -2.80647 | 34889 ft | 489 kts | 47° |
| 2026-05-07 22:05 | 3.21730 | -2.75649 | 34889 ft | 489 kts | 47° |
| 2026-05-07 22:05 | 3.26367 | -2.70684 | 34889 ft | 489 kts | 47° |
| 2026-05-07 22:06 | 3.30999 | -2.65723 | 34888 ft | 489 kts | 47° |
| 2026-05-07 22:06 | 3.35634 | -2.60757 | 34888 ft | 489 kts | 47° |
| 2026-05-07 22:07 | 3.40260 | -2.55798 | 34887 ft | 489 kts | 47° |
| 2026-05-07 22:07 | 3.44894 | -2.50831 | 34887 ft | 489 kts | 47° |
| 2026-05-07 22:08 | 3.49528 | -2.45863 | 34886 ft | 489 kts | 47° |
| 2026-05-07 22:08 | 3.54186 | -2.40869 | 34886 ft | 489 kts | 47° |
| 2026-05-07 22:09 | 3.58822 | -2.35897 | 34885 ft | 490 kts | 47° |
| 2026-05-07 22:09 | 3.63460 | -2.30922 | 34884 ft | 489 kts | 47° |
| 2026-05-07 22:10 | 3.68101 | -2.25943 | 34884 ft | 489 kts | 47° |
| 2026-05-07 22:10 | 3.72739 | -2.20967 | 34890 ft | 489 kts | 47° |
| 2026-05-07 22:11 | 3.77373 | -2.15993 | 34889 ft | 489 kts | 47° |
| 2026-05-07 22:11 | 3.82040 | -2.10986 | 34888 ft | 489 kts | 47° |
| 2026-05-07 22:12 | 3.86672 | -2.06013 | 34887 ft | 489 kts | 47° |
| 2026-05-07 22:12 | 3.91310 | -2.01031 | 34885 ft | 489 kts | 47° |
| 2026-05-07 22:13 | 3.95943 | -1.96054 | 34885 ft | 489 kts | 47° |
| 2026-05-07 22:13 | 4.00575 | -1.91078 | 34884 ft | 489 kts | 47° |
| 2026-05-07 22:14 | 4.05254 | -1.86135 | 34883 ft | 489 kts | 47° |
| 2026-05-07 22:14 | 4.09954 | -1.81167 | 34882 ft | 489 kts | 47° |
| 2026-05-07 22:15 | 4.14628 | -1.76218 | 34881 ft | 489 kts | 47° |
| 2026-05-07 22:15 | 4.19294 | -1.71276 | 34882 ft | 489 kts | 47° |
| 2026-05-07 22:16 | 4.23965 | -1.66330 | 34882 ft | 489 kts | 47° |
| 2026-05-07 22:16 | 4.28637 | -1.61385 | 34881 ft | 489 kts | 47° |
| 2026-05-07 22:17 | 4.33308 | -1.56443 | 34881 ft | 490 kts | 47° |
| 2026-05-07 22:17 | 4.37993 | -1.51484 | 34881 ft | 490 kts | 47° |
| 2026-05-07 22:18 | 4.45006 | -1.43995 | 34881 ft | 490 kts | 47° |
| 2026-05-07 22:19 | 4.49624 | -1.38997 | 34881 ft | 489 kts | 47° |
| 2026-05-07 22:19 | 4.54240 | -1.34003 | 34867 ft | 489 kts | 47° |
| 2026-05-07 22:19 | 4.56547 | -1.31508 | 34531 ft | 489 kts | 47° |
| 2026-05-07 22:20 | 4.58849 | -1.29018 | 33791 ft | 489 kts | 47° |
| 2026-05-07 22:20 | 4.61153 | -1.26526 | 33221 ft | 485 kts | 47° |
| 2026-05-07 22:20 | 4.63436 | -1.24056 | 32658 ft | 481 kts | 48° |
| 2026-05-07 22:20 | 4.65722 | -1.21584 | 32106 ft | 476 kts | 48° |
| 2026-05-07 22:21 | 4.67963 | -1.19162 | 31570 ft | 472 kts | 48° |
| 2026-05-07 22:21 | 4.70180 | -1.16764 | 31040 ft | 468 kts | 48° |
| 2026-05-07 22:21 | 4.72377 | -1.14388 | 30515 ft | 463 kts | 49° |
| 2026-05-07 22:21 | 4.74553 | -1.12034 | 29992 ft | 459 kts | 49° |
| 2026-05-07 22:22 | 4.76712 | -1.09700 | 29470 ft | 455 kts | 49° |
| 2026-05-07 22:22 | 4.78851 | -1.07385 | 28940 ft | 451 kts | 49° |
| 2026-05-07 22:22 | 4.80969 | -1.05091 | 28408 ft | 447 kts | 49° |
| 2026-05-07 22:22 | 4.83070 | -1.02816 | 27874 ft | 444 kts | 49° |
| 2026-05-07 22:23 | 4.85154 | -1.00558 | 27342 ft | 440 kts | 49° |
| 2026-05-07 22:23 | 4.87223 | -0.98316 | 26810 ft | 437 kts | 49° |
| 2026-05-07 22:23 | 4.89305 | -0.96061 | 26273 ft | 433 kts | 49° |
| 2026-05-07 22:23 | 4.91340 | -0.93856 | 25746 ft | 430 kts | 49° |
| 2026-05-07 22:24 | 4.93360 | -0.91668 | 25220 ft | 427 kts | 49° |
| 2026-05-07 22:24 | 4.95366 | -0.89495 | 24694 ft | 424 kts | 49° |
| 2026-05-07 22:24 | 4.97358 | -0.87333 | 24168 ft | 420 kts | 49° |
| 2026-05-07 22:24 | 4.99333 | -0.85192 | 23645 ft | 417 kts | 49° |
| 2026-05-07 22:25 | 5.01293 | -0.83065 | 23126 ft | 414 kts | 49° |
| 2026-05-07 22:25 | 5.03237 | -0.80955 | 22613 ft | 411 kts | 49° |
| 2026-05-07 22:25 | 5.05166 | -0.78860 | 22104 ft | 408 kts | 49° |
| 2026-05-07 22:25 | 5.07080 | -0.76782 | 21596 ft | 405 kts | 49° |
| 2026-05-07 22:26 | 5.08978 | -0.74720 | 21092 ft | 402 kts | 48° |
| 2026-05-07 22:26 | 5.10866 | -0.72669 | 20589 ft | 398 kts | 48° |
| 2026-05-07 22:26 | 5.12737 | -0.70637 | 20091 ft | 395 kts | 48° |
| 2026-05-07 22:26 | 5.14596 | -0.68623 | 19596 ft | 392 kts | 48° |
| 2026-05-07 22:27 | 5.16457 | -0.66604 | 19098 ft | 388 kts | 48° |
| 2026-05-07 22:27 | 5.18282 | -0.64622 | 18604 ft | 385 kts | 48° |
| 2026-05-07 22:27 | 5.20089 | -0.62659 | 18115 ft | 382 kts | 48° |
| 2026-05-07 22:27 | 5.21881 | -0.60711 | 17628 ft | 379 kts | 48° |
| 2026-05-07 22:28 | 5.23658 | -0.58780 | 17146 ft | 376 kts | 48° |
| 2026-05-07 22:28 | 5.25417 | -0.56867 | 16670 ft | 372 kts | 49° |
| 2026-05-07 22:28 | 5.27167 | -0.54965 | 16194 ft | 369 kts | 49° |
| 2026-05-07 22:28 | 5.28897 | -0.53083 | 15719 ft | 366 kts | 49° |
| 2026-05-07 22:29 | 5.30612 | -0.51218 | 15247 ft | 363 kts | 49° |
| 2026-05-07 22:29 | 5.32314 | -0.49368 | 14775 ft | 360 kts | 49° |
| 2026-05-07 22:29 | 5.33999 | -0.47536 | 14304 ft | 357 kts | 49° |
| 2026-05-07 22:29 | 5.35794 | -0.45785 | 13828 ft | 355 kts | 44° |
| 2026-05-07 22:30 | 5.37685 | -0.44219 | 13358 ft | 353 kts | 41° |
| 2026-05-07 22:30 | 5.39636 | -0.42737 | 12882 ft | 350 kts | 39° |
| 2026-05-07 22:30 | 5.41584 | -0.41300 | 12412 ft | 348 kts | 39° |
| 2026-05-07 22:30 | 5.43515 | -0.39857 | 11946 ft | 344 kts | 40° |
| 2026-05-07 22:31 | 5.45418 | -0.38417 | 11483 ft | 342 kts | 40° |
| 2026-05-07 22:31 | 5.47302 | -0.36983 | 11015 ft | 339 kts | 40° |
| 2026-05-07 22:31 | 5.49165 | -0.35561 | 10653 ft | 334 kts | 39° |
| 2026-05-07 22:31 | 5.50976 | -0.34176 | 10510 ft | 322 kts | 39° |
| 2026-05-07 22:32 | 5.52727 | -0.32836 | 10357 ft | 311 kts | 39° |
| 2026-05-07 22:32 | 5.54411 | -0.31546 | 10212 ft | 300 kts | 39° |
| 2026-05-07 22:32 | 5.56036 | -0.30302 | 10079 ft | 288 kts | 39° |
| 2026-05-07 22:32 | 5.57591 | -0.29111 | 9944 ft | 277 kts | 39° |
| 2026-05-07 22:33 | 5.59133 | -0.27930 | 9631 ft | 275 kts | 39° |
| 2026-05-07 22:33 | 5.60654 | -0.26765 | 9236 ft | 278 kts | 38° |
| 2026-05-07 22:33 | 5.62189 | -0.25589 | 8842 ft | 278 kts | 38° |
| 2026-05-07 22:33 | 5.63771 | -0.24483 | 8445 ft | 278 kts | 31° |
| 2026-05-07 22:34 | 5.65492 | -0.23610 | 8069 ft | 277 kts | 24° |
| 2026-05-07 22:34 | 5.67268 | -0.22880 | 7693 ft | 276 kts | 22° |
| 2026-05-07 22:34 | 5.69054 | -0.22188 | 7338 ft | 275 kts | 21° |
| 2026-05-07 22:34 | 5.70835 | -0.21506 | 6978 ft | 274 kts | 21° |
| 2026-05-07 22:35 | 5.72604 | -0.20811 | 6607 ft | 273 kts | 22° |
| 2026-05-07 22:35 | 5.74356 | -0.20083 | 6231 ft | 273 kts | 22° |
| 2026-05-07 22:35 | 5.76090 | -0.19363 | 6016 ft | 264 kts | 22° |
| 2026-05-07 22:35 | 5.77736 | -0.18673 | 5888 ft | 250 kts | 22° |
| 2026-05-07 22:36 | 5.79306 | -0.18009 | 5637 ft | 241 kts | 22° |
| 2026-05-07 22:36 | 5.80742 | -0.17184 | 5358 ft | 231 kts | 43° |
| 2026-05-07 22:36 | 5.81538 | -0.15833 | 4948 ft | 225 kts | 75° |
| 2026-05-07 22:36 | 5.81494 | -0.14298 | 4438 ft | 221 kts | 106° |
| 2026-05-07 22:37 | 5.80785 | -0.12952 | 4057 ft | 218 kts | 122° |
| 2026-05-07 22:37 | 5.79923 | -0.11702 | 3857 ft | 217 kts | 127° |
| 2026-05-07 22:37 | 5.78832 | -0.10717 | 3627 ft | 211 kts | 154° |
| 2026-05-07 22:37 | 5.77424 | -0.10358 | 3408 ft | 207 kts | 175° |
| 2026-05-07 22:38 | 5.76011 | -0.10493 | 3206 ft | 203 kts | 189° |
| 2026-05-07 22:38 | 5.74654 | -0.10868 | 2950 ft | 201 kts | 198° |
| 2026-05-07 22:38 | 5.73364 | -0.11379 | 2686 ft | 198 kts | 202° |
| 2026-05-07 22:38 | 5.72115 | -0.11930 | 2428 ft | 197 kts | 203° |
| 2026-05-07 22:39 | 5.70904 | -0.12446 | 2210 ft | 180 kts | 203° |
| 2026-05-07 22:39 | 5.69801 | -0.12904 | 1957 ft | 166 kts | 203° |
| 2026-05-07 22:39 | 5.68741 | -0.13341 | 1739 ft | 161 kts | 203° |
| 2026-05-07 22:39 | 5.67708 | -0.13766 | 1519 ft | 162 kts | 203° |
| 2026-05-07 22:40 | 5.66676 | -0.14191 | 1305 ft | 163 kts | 203° |
| 2026-05-07 22:40 | 5.65621 | -0.14625 | 1086 ft | 162 kts | 203° |
| 2026-05-07 22:40 | 5.64576 | -0.15052 | 869 ft | 162 kts | 203° |
| 2026-05-07 22:40 | 5.63536 | -0.15481 | 665 ft | 161 kts | 204° |
| 2026-05-07 22:41 | 5.62501 | -0.15912 | 448 ft | 161 kts | 204° |
| 2026-05-07 22:41 | 5.61471 | -0.16333 | 239 ft | 159 kts | 203° |
| 2026-05-07 22:41 | 5.60504 | -0.16731 | 211 ft | 132 kts | 202° |
| 2026-05-07 22:41 | 5.59863 | -0.16996 | 210 ft | 69 kts | 202° |
| 2026-05-07 22:42 | 5.59540 | -0.17129 | 210 ft | 36 kts | 202° |
| 2026-05-07 22:42 | 5.59352 | -0.17206 | 210 ft | 23 kts | 202° |
| 2026-05-07 22:42 | 5.59237 | -0.17253 | 210 ft | 12 kts | 202° |
| 2026-05-07 22:42 | 5.59182 | -0.17264 | 210 ft | 7 kts | 186° |
| 2026-05-07 22:43 | 5.59142 | -0.17282 | 210 ft | 4 kts | 231° |
| 2026-05-07 22:43 | 5.59147 | -0.17305 | 210 ft | 4 kts | 325° |
| 2026-05-07 22:43 | 5.59171 | -0.17301 | 210 ft | 4 kts | 26° |
| 2026-05-07 22:43 | 5.59200 | -0.17282 | 210 ft | 7 kts | 36° |
| 2026-05-07 22:44 | 5.59256 | -0.17247 | 210 ft | 12 kts | 25° |
| 2026-05-07 22:44 | 5.59345 | -0.17209 | 210 ft | 16 kts | 22° |
| 2026-05-07 22:44 | 5.59466 | -0.17160 | 210 ft | 22 kts | 22° |
| 2026-05-07 22:44 | 5.59604 | -0.17103 | 210 ft | 21 kts | 22° |
| 2026-05-07 22:45 | 5.59735 | -0.17049 | 210 ft | 18 kts | 22° |
| 2026-05-07 22:45 | 5.59809 | -0.17019 | 210 ft | 9 kts | 14° |
| 2026-05-07 22:45 | 5.59866 | -0.17037 | 210 ft | 9 kts | 306° |
| 2026-05-07 22:45 | 5.59856 | -0.17093 | 210 ft | 9 kts | 233° |
| 2026-05-07 22:46 | 5.59821 | -0.17139 | 210 ft | 8 kts | 233° |
| 2026-05-07 22:46 | 5.59791 | -0.17181 | 210 ft | 5 kts | 233° |
| 2026-05-07 22:46 | 5.59776 | -0.17212 | 210 ft | 5 kts | 262° |
| 2026-05-07 22:46 | 5.59782 | -0.17246 | 210 ft | 5 kts | 289° |
| 2026-05-07 22:47 | 5.59794 | -0.17276 | 210 ft | 5 kts | 291° |
| 2026-05-07 22:47 | 5.59804 | -0.17303 | 210 ft | 3 kts | 291° |
| 2026-05-07 22:47 | 5.59812 | -0.17322 | 210 ft | 3 kts | 292° |
| 2026-05-07 22:47 | 5.59816 | -0.17332 | 210 ft | 0 kts | 292° |